<?xml version="1.0" encoding="UTF-8" standalone="no" ?>
<gpx xmlns="http://www.topografix.com/GPX/1/1" xmlns:xsi="http://www.w3.org/2001/XMLSchema-instance" xsi:schemaLocation="http://www.topografix.com/GPX/1/1 http://www.topografix.com/GPX/1/1/gpx.xsd" version="1.1" creator="VisuGPX - https://www.visugpx.com">
  <metadata>
    <name>Tour du Biros en 4 Jours</name>
  </metadata>
  <trk>
    <name><![CDATA[ACTIVE LOG 020]]></name>
    <trkseg>
      <trkpt lat="42.83439" lon="0.93451">
        <ele>1018.6540527344</ele>
        <time>2019-05-26T16:36:03Z</time>
      </trkpt>
      <trkpt lat="42.83437" lon="0.93458">
        <ele>1018.1733398438</ele>
        <time>2019-05-26T16:36:23Z</time>
      </trkpt>
      <trkpt lat="42.83432" lon="0.93466">
        <ele>1018.6540527344</ele>
        <time>2019-05-26T16:36:29Z</time>
      </trkpt>
      <trkpt lat="42.83426" lon="0.93474">
        <ele>1015.7702636719</ele>
        <time>2019-05-26T16:36:44Z</time>
      </trkpt>
      <trkpt lat="42.83418" lon="0.93485">
        <ele>1011.9250488281</ele>
        <time>2019-05-26T16:36:50Z</time>
      </trkpt>
      <trkpt lat="42.83416" lon="0.93493">
        <ele>1010.9636230469</ele>
        <time>2019-05-26T16:36:52Z</time>
      </trkpt>
      <trkpt lat="42.83414" lon="0.935">
        <ele>1005.6765136719</ele>
        <time>2019-05-26T16:36:55Z</time>
      </trkpt>
      <trkpt lat="42.83413" lon="0.93505">
        <ele>1006.6376953125</ele>
        <time>2019-05-26T16:36:56Z</time>
      </trkpt>
      <trkpt lat="42.83413" lon="0.9351">
        <ele>1004.7150878906</ele>
        <time>2019-05-26T16:36:59Z</time>
      </trkpt>
      <trkpt lat="42.83412" lon="0.93513">
        <ele>1001.3503417969</ele>
        <time>2019-05-26T16:37:01Z</time>
      </trkpt>
      <trkpt lat="42.83411" lon="0.93515">
        <ele>1002.7922363281</ele>
        <time>2019-05-26T16:37:02Z</time>
      </trkpt>
      <trkpt lat="42.8341" lon="0.93518">
        <ele>998.46630859375</ele>
        <time>2019-05-26T16:37:04Z</time>
      </trkpt>
      <trkpt lat="42.83409" lon="0.93519">
        <ele>998.46630859375</ele>
        <time>2019-05-26T16:37:05Z</time>
      </trkpt>
      <trkpt lat="42.83407" lon="0.93524">
        <ele>995.10180664062</ele>
        <time>2019-05-26T16:37:09Z</time>
      </trkpt>
      <trkpt lat="42.83407" lon="0.93526">
        <ele>995.10180664062</ele>
        <time>2019-05-26T16:37:10Z</time>
      </trkpt>
      <trkpt lat="42.83405" lon="0.9353">
        <ele>993.65991210938</ele>
        <time>2019-05-26T16:37:13Z</time>
      </trkpt>
      <trkpt lat="42.83403" lon="0.93534">
        <ele>992.21801757812</ele>
        <time>2019-05-26T16:37:16Z</time>
      </trkpt>
      <trkpt lat="42.83402" lon="0.93535">
        <ele>992.21801757812</ele>
        <time>2019-05-26T16:37:17Z</time>
      </trkpt>
      <trkpt lat="42.83401" lon="0.93536">
        <ele>990.77587890625</ele>
        <time>2019-05-26T16:37:19Z</time>
      </trkpt>
      <trkpt lat="42.834" lon="0.93541">
        <ele>989.81469726562</ele>
        <time>2019-05-26T16:37:23Z</time>
      </trkpt>
      <trkpt lat="42.83397" lon="0.93545">
        <ele>988.853515625</ele>
        <time>2019-05-26T16:37:25Z</time>
      </trkpt>
      <trkpt lat="42.83392" lon="0.93557">
        <ele>986.93041992188</ele>
        <time>2019-05-26T16:37:37Z</time>
      </trkpt>
      <trkpt lat="42.83386" lon="0.93583">
        <ele>986.44995117188</ele>
        <time>2019-05-26T16:37:54Z</time>
      </trkpt>
      <trkpt lat="42.83384" lon="0.9361">
        <ele>983.56591796875</ele>
        <time>2019-05-26T16:38:11Z</time>
      </trkpt>
      <trkpt lat="42.83357" lon="0.93614">
        <ele>984.04663085938</ele>
        <time>2019-05-26T16:38:28Z</time>
      </trkpt>
      <trkpt lat="42.83342" lon="0.93616">
        <ele>981.16284179688</ele>
        <time>2019-05-26T16:38:42Z</time>
      </trkpt>
      <trkpt lat="42.83342" lon="0.93615">
        <ele>978.27880859375</ele>
        <time>2019-05-26T16:38:52Z</time>
      </trkpt>
      <trkpt lat="42.83339" lon="0.93616">
        <ele>975.87548828125</ele>
        <time>2019-05-26T16:39:01Z</time>
      </trkpt>
      <trkpt lat="42.83335" lon="0.93618">
        <ele>974.91430664062</ele>
        <time>2019-05-26T16:39:02Z</time>
      </trkpt>
      <trkpt lat="42.83331" lon="0.93622">
        <ele>973.47241210938</ele>
        <time>2019-05-26T16:39:07Z</time>
      </trkpt>
      <trkpt lat="42.83319" lon="0.93635">
        <ele>970.107421875</ele>
        <time>2019-05-26T16:39:24Z</time>
      </trkpt>
      <trkpt lat="42.83304" lon="0.93643">
        <ele>967.2236328125</ele>
        <time>2019-05-26T16:39:37Z</time>
      </trkpt>
      <trkpt lat="42.83294" lon="0.93652">
        <ele>963.85888671875</ele>
        <time>2019-05-26T16:39:48Z</time>
      </trkpt>
      <trkpt lat="42.83286" lon="0.93671">
        <ele>960.97509765625</ele>
        <time>2019-05-26T16:40:01Z</time>
      </trkpt>
      <trkpt lat="42.83276" lon="0.93677">
        <ele>958.57177734375</ele>
        <time>2019-05-26T16:40:18Z</time>
      </trkpt>
      <trkpt lat="42.83274" lon="0.93689">
        <ele>955.20703125</ele>
        <time>2019-05-26T16:40:34Z</time>
      </trkpt>
      <trkpt lat="42.83273" lon="0.93687">
        <ele>954.24584960938</ele>
        <time>2019-05-26T16:40:38Z</time>
      </trkpt>
      <trkpt lat="42.83269" lon="0.93704">
        <ele>953.28442382812</ele>
        <time>2019-05-26T16:40:50Z</time>
      </trkpt>
      <trkpt lat="42.83257" lon="0.93711">
        <ele>953.76513671875</ele>
        <time>2019-05-26T16:41:03Z</time>
      </trkpt>
      <trkpt lat="42.83237" lon="0.93711">
        <ele>954.72631835938</ele>
        <time>2019-05-26T16:41:18Z</time>
      </trkpt>
      <trkpt lat="42.83227" lon="0.93709">
        <ele>954.24584960938</ele>
        <time>2019-05-26T16:41:24Z</time>
      </trkpt>
      <trkpt lat="42.83207" lon="0.93686">
        <ele>955.20703125</ele>
        <time>2019-05-26T16:41:41Z</time>
      </trkpt>
      <trkpt lat="42.83196" lon="0.93675">
        <ele>956.16845703125</ele>
        <time>2019-05-26T16:41:54Z</time>
      </trkpt>
      <trkpt lat="42.83176" lon="0.93672">
        <ele>957.1298828125</ele>
        <time>2019-05-26T16:42:09Z</time>
      </trkpt>
      <trkpt lat="42.83165" lon="0.93672">
        <ele>956.64916992188</ele>
        <time>2019-05-26T16:42:20Z</time>
      </trkpt>
      <trkpt lat="42.83145" lon="0.93676">
        <ele>955.20703125</ele>
        <time>2019-05-26T16:42:33Z</time>
      </trkpt>
      <trkpt lat="42.83132" lon="0.93685">
        <ele>953.76513671875</ele>
        <time>2019-05-26T16:42:46Z</time>
      </trkpt>
      <trkpt lat="42.8313" lon="0.93694">
        <ele>952.32299804688</ele>
        <time>2019-05-26T16:42:52Z</time>
      </trkpt>
      <trkpt lat="42.83125" lon="0.93703">
        <ele>953.76513671875</ele>
        <time>2019-05-26T16:43:04Z</time>
      </trkpt>
      <trkpt lat="42.83123" lon="0.9371">
        <ele>954.72631835938</ele>
        <time>2019-05-26T16:43:13Z</time>
      </trkpt>
      <trkpt lat="42.83124" lon="0.93713">
        <ele>955.20703125</ele>
        <time>2019-05-26T16:43:30Z</time>
      </trkpt>
      <trkpt lat="42.83127" lon="0.93715">
        <ele>957.61059570312</ele>
        <time>2019-05-26T16:43:45Z</time>
      </trkpt>
      <trkpt lat="42.83131" lon="0.9372">
        <ele>956.64916992188</ele>
        <time>2019-05-26T16:43:46Z</time>
      </trkpt>
      <trkpt lat="42.83144" lon="0.93726">
        <ele>959.05249023438</ele>
        <time>2019-05-26T16:43:59Z</time>
      </trkpt>
      <trkpt lat="42.83154" lon="0.93733">
        <ele>957.1298828125</ele>
        <time>2019-05-26T16:44:10Z</time>
      </trkpt>
      <trkpt lat="42.83155" lon="0.93732">
        <ele>967.7041015625</ele>
        <time>2019-05-29T08:06:39Z</time>
      </trkpt>
      <trkpt lat="42.83134" lon="0.9373">
        <ele>968.66552734375</ele>
        <time>2019-05-29T08:06:47Z</time>
      </trkpt>
      <trkpt lat="42.83131" lon="0.9373">
        <ele>968.18481445312</ele>
        <time>2019-05-29T08:06:51Z</time>
      </trkpt>
      <trkpt lat="42.83117" lon="0.93734">
        <ele>970.107421875</ele>
        <time>2019-05-29T08:07:07Z</time>
      </trkpt>
      <trkpt lat="42.83111" lon="0.93735">
        <ele>972.0302734375</ele>
        <time>2019-05-29T08:07:20Z</time>
      </trkpt>
      <trkpt lat="42.83123" lon="0.93741">
        <ele>974.91430664062</ele>
        <time>2019-05-29T08:07:34Z</time>
      </trkpt>
      <trkpt lat="42.83126" lon="0.93745">
        <ele>978.75952148438</ele>
        <time>2019-05-29T08:07:50Z</time>
      </trkpt>
      <trkpt lat="42.83125" lon="0.93752">
        <ele>981.64331054688</ele>
        <time>2019-05-29T08:08:08Z</time>
      </trkpt>
      <trkpt lat="42.83131" lon="0.93754">
        <ele>983.08520507812</ele>
        <time>2019-05-29T08:08:17Z</time>
      </trkpt>
      <trkpt lat="42.83139" lon="0.93758">
        <ele>985.00805664062</ele>
        <time>2019-05-29T08:08:26Z</time>
      </trkpt>
      <trkpt lat="42.83151" lon="0.93775">
        <ele>986.93041992188</ele>
        <time>2019-05-29T08:08:43Z</time>
      </trkpt>
      <trkpt lat="42.83165" lon="0.93795">
        <ele>990.29541015625</ele>
        <time>2019-05-29T08:09:02Z</time>
      </trkpt>
      <trkpt lat="42.83164" lon="0.93809">
        <ele>993.65991210938</ele>
        <time>2019-05-29T08:09:16Z</time>
      </trkpt>
      <trkpt lat="42.83172" lon="0.93818">
        <ele>997.0244140625</ele>
        <time>2019-05-29T08:09:30Z</time>
      </trkpt>
      <trkpt lat="42.83174" lon="0.93829">
        <ele>998.46630859375</ele>
        <time>2019-05-29T08:09:38Z</time>
      </trkpt>
      <trkpt lat="42.83185" lon="0.93851">
        <ele>1001.8310546875</ele>
        <time>2019-05-29T08:09:59Z</time>
      </trkpt>
      <trkpt lat="42.83188" lon="0.93852">
        <ele>1002.3115234375</ele>
        <time>2019-05-29T08:10:02Z</time>
      </trkpt>
      <trkpt lat="42.83203" lon="0.93864">
        <ele>1004.2346191406</ele>
        <time>2019-05-29T08:10:20Z</time>
      </trkpt>
      <trkpt lat="42.83214" lon="0.9388">
        <ele>1007.5991210938</ele>
        <time>2019-05-29T08:10:36Z</time>
      </trkpt>
      <trkpt lat="42.83215" lon="0.93884">
        <ele>1009.5217285156</ele>
        <time>2019-05-29T08:10:54Z</time>
      </trkpt>
      <trkpt lat="42.83215" lon="0.93885">
        <ele>1010.4829101562</ele>
        <time>2019-05-29T08:11:29Z</time>
      </trkpt>
      <trkpt lat="42.8322" lon="0.93894">
        <ele>1013.8474121094</ele>
        <time>2019-05-29T08:11:42Z</time>
      </trkpt>
      <trkpt lat="42.83225" lon="0.93904">
        <ele>1016.7314453125</ele>
        <time>2019-05-29T08:11:56Z</time>
      </trkpt>
      <trkpt lat="42.83226" lon="0.93915">
        <ele>1020.5769042969</ele>
        <time>2019-05-29T08:12:11Z</time>
      </trkpt>
      <trkpt lat="42.83227" lon="0.93916">
        <ele>1020.5769042969</ele>
        <time>2019-05-29T08:12:12Z</time>
      </trkpt>
      <trkpt lat="42.83232" lon="0.93925">
        <ele>1023.4609375</ele>
        <time>2019-05-29T08:12:26Z</time>
      </trkpt>
      <trkpt lat="42.83231" lon="0.93931">
        <ele>1026.3447265625</ele>
        <time>2019-05-29T08:12:45Z</time>
      </trkpt>
      <trkpt lat="42.83233" lon="0.9394">
        <ele>1029.7092285156</ele>
        <time>2019-05-29T08:12:59Z</time>
      </trkpt>
      <trkpt lat="42.8324" lon="0.93949">
        <ele>1033.0737304688</ele>
        <time>2019-05-29T08:13:16Z</time>
      </trkpt>
      <trkpt lat="42.83245" lon="0.93957">
        <ele>1035.4770507812</ele>
        <time>2019-05-29T08:13:38Z</time>
      </trkpt>
      <trkpt lat="42.83248" lon="0.93961">
        <ele>1038.361328125</ele>
        <time>2019-05-29T08:13:49Z</time>
      </trkpt>
      <trkpt lat="42.83252" lon="0.93971">
        <ele>1042.2065429688</ele>
        <time>2019-05-29T08:14:05Z</time>
      </trkpt>
      <trkpt lat="42.83254" lon="0.93978">
        <ele>1045.5710449219</ele>
        <time>2019-05-29T08:14:20Z</time>
      </trkpt>
      <trkpt lat="42.83253" lon="0.93984">
        <ele>1048.935546875</ele>
        <time>2019-05-29T08:14:36Z</time>
      </trkpt>
      <trkpt lat="42.83247" lon="0.93987">
        <ele>1052.3002929688</ele>
        <time>2019-05-29T08:14:54Z</time>
      </trkpt>
      <trkpt lat="42.83249" lon="0.93996">
        <ele>1054.7036132812</ele>
        <time>2019-05-29T08:15:22Z</time>
      </trkpt>
      <trkpt lat="42.83252" lon="0.94004">
        <ele>1059.0295410156</ele>
        <time>2019-05-29T08:15:35Z</time>
      </trkpt>
      <trkpt lat="42.83253" lon="0.94007">
        <ele>1059.5102539062</ele>
        <time>2019-05-29T08:15:40Z</time>
      </trkpt>
      <trkpt lat="42.83249" lon="0.94012">
        <ele>1062.3940429688</ele>
        <time>2019-05-29T08:15:56Z</time>
      </trkpt>
      <trkpt lat="42.83238" lon="0.94013">
        <ele>1066.2392578125</ele>
        <time>2019-05-29T08:16:14Z</time>
      </trkpt>
      <trkpt lat="42.83237" lon="0.9402">
        <ele>1069.1235351562</ele>
        <time>2019-05-29T08:16:29Z</time>
      </trkpt>
      <trkpt lat="42.83246" lon="0.94033">
        <ele>1072.4880371094</ele>
        <time>2019-05-29T08:16:46Z</time>
      </trkpt>
      <trkpt lat="42.83254" lon="0.94047">
        <ele>1075.3718261719</ele>
        <time>2019-05-29T08:17:03Z</time>
      </trkpt>
      <trkpt lat="42.83264" lon="0.94056">
        <ele>1078.7365722656</ele>
        <time>2019-05-29T08:17:22Z</time>
      </trkpt>
      <trkpt lat="42.83273" lon="0.94065">
        <ele>1081.6203613281</ele>
        <time>2019-05-29T08:17:37Z</time>
      </trkpt>
      <trkpt lat="42.83266" lon="0.94068">
        <ele>1084.9853515625</ele>
        <time>2019-05-29T08:17:50Z</time>
      </trkpt>
      <trkpt lat="42.83259" lon="0.94069">
        <ele>1085.9465332031</ele>
        <time>2019-05-29T08:18:02Z</time>
      </trkpt>
      <trkpt lat="42.83245" lon="0.94069">
        <ele>1089.3110351562</ele>
        <time>2019-05-29T08:18:22Z</time>
      </trkpt>
      <trkpt lat="42.83238" lon="0.94067">
        <ele>1089.7917480469</ele>
        <time>2019-05-29T08:18:32Z</time>
      </trkpt>
      <trkpt lat="42.83227" lon="0.94061">
        <ele>1092.1950683594</ele>
        <time>2019-05-29T08:18:49Z</time>
      </trkpt>
      <trkpt lat="42.83229" lon="0.9407">
        <ele>1095.5595703125</ele>
        <time>2019-05-29T08:19:02Z</time>
      </trkpt>
      <trkpt lat="42.8323" lon="0.94072">
        <ele>1095.0788574219</ele>
        <time>2019-05-29T08:19:04Z</time>
      </trkpt>
      <trkpt lat="42.83241" lon="0.94089">
        <ele>1099.4047851562</ele>
        <time>2019-05-29T08:19:23Z</time>
      </trkpt>
      <trkpt lat="42.83253" lon="0.941">
        <ele>1101.3276367188</ele>
        <time>2019-05-29T08:19:41Z</time>
      </trkpt>
      <trkpt lat="42.83261" lon="0.94105">
        <ele>1104.6921386719</ele>
        <time>2019-05-29T08:19:54Z</time>
      </trkpt>
      <trkpt lat="42.83272" lon="0.94114">
        <ele>1107.0954589844</ele>
        <time>2019-05-29T08:20:12Z</time>
      </trkpt>
      <trkpt lat="42.83279" lon="0.94119">
        <ele>1110.4599609375</ele>
        <time>2019-05-29T08:20:27Z</time>
      </trkpt>
      <trkpt lat="42.83282" lon="0.94125">
        <ele>1113.8244628906</ele>
        <time>2019-05-29T08:20:41Z</time>
      </trkpt>
      <trkpt lat="42.83278" lon="0.94126">
        <ele>1115.7473144531</ele>
        <time>2019-05-29T08:20:49Z</time>
      </trkpt>
      <trkpt lat="42.83282" lon="0.94135">
        <ele>1118.6313476562</ele>
        <time>2019-05-29T08:21:03Z</time>
      </trkpt>
      <trkpt lat="42.83284" lon="0.94144">
        <ele>1122.4765625</ele>
        <time>2019-05-29T08:21:25Z</time>
      </trkpt>
      <trkpt lat="42.83288" lon="0.94153">
        <ele>1125.8410644531</ele>
        <time>2019-05-29T08:21:45Z</time>
      </trkpt>
      <trkpt lat="42.83286" lon="0.94158">
        <ele>1127.283203125</ele>
        <time>2019-05-29T08:22:05Z</time>
      </trkpt>
      <trkpt lat="42.83286" lon="0.94165">
        <ele>1130.6477050781</ele>
        <time>2019-05-29T08:22:19Z</time>
      </trkpt>
      <trkpt lat="42.83291" lon="0.94179">
        <ele>1134.0124511719</ele>
        <time>2019-05-29T08:22:38Z</time>
      </trkpt>
      <trkpt lat="42.83292" lon="0.94189">
        <ele>1137.376953125</ele>
        <time>2019-05-29T08:22:54Z</time>
      </trkpt>
      <trkpt lat="42.83293" lon="0.94196">
        <ele>1138.8190917969</ele>
        <time>2019-05-29T08:23:08Z</time>
      </trkpt>
      <trkpt lat="42.83297" lon="0.94208">
        <ele>1140.2609863281</ele>
        <time>2019-05-29T08:23:20Z</time>
      </trkpt>
      <trkpt lat="42.83296" lon="0.9422">
        <ele>1143.1447753906</ele>
        <time>2019-05-29T08:23:40Z</time>
      </trkpt>
      <trkpt lat="42.83295" lon="0.94227">
        <ele>1146.5095214844</ele>
        <time>2019-05-29T08:23:50Z</time>
      </trkpt>
      <trkpt lat="42.83291" lon="0.94235">
        <ele>1149.3935546875</ele>
        <time>2019-05-29T08:24:07Z</time>
      </trkpt>
      <trkpt lat="42.83291" lon="0.94256">
        <ele>1152.7580566406</ele>
        <time>2019-05-29T08:24:27Z</time>
      </trkpt>
      <trkpt lat="42.83292" lon="0.94267">
        <ele>1152.7580566406</ele>
        <time>2019-05-29T08:24:35Z</time>
      </trkpt>
      <trkpt lat="42.8329" lon="0.94293">
        <ele>1155.6420898438</ele>
        <time>2019-05-29T08:24:56Z</time>
      </trkpt>
      <trkpt lat="42.8329" lon="0.94294">
        <ele>1155.6420898438</ele>
        <time>2019-05-29T08:24:57Z</time>
      </trkpt>
      <trkpt lat="42.8329" lon="0.94306">
        <ele>1156.1225585938</ele>
        <time>2019-05-29T08:25:15Z</time>
      </trkpt>
      <trkpt lat="42.83286" lon="0.94323">
        <ele>1158.5258789062</ele>
        <time>2019-05-29T08:25:33Z</time>
      </trkpt>
      <trkpt lat="42.83284" lon="0.94332">
        <ele>1159.4873046875</ele>
        <time>2019-05-29T08:25:39Z</time>
      </trkpt>
      <trkpt lat="42.83278" lon="0.94357">
        <ele>1161.890625</ele>
        <time>2019-05-29T08:25:58Z</time>
      </trkpt>
      <trkpt lat="42.83267" lon="0.94382">
        <ele>1163.8129882812</ele>
        <time>2019-05-29T08:26:18Z</time>
      </trkpt>
      <trkpt lat="42.83254" lon="0.94402">
        <ele>1167.1779785156</ele>
        <time>2019-05-29T08:26:38Z</time>
      </trkpt>
      <trkpt lat="42.83241" lon="0.94421">
        <ele>1168.1391601562</ele>
        <time>2019-05-29T08:26:59Z</time>
      </trkpt>
      <trkpt lat="42.83238" lon="0.94424">
        <ele>1168.1391601562</ele>
        <time>2019-05-29T08:27:23Z</time>
      </trkpt>
      <trkpt lat="42.8322" lon="0.94447">
        <ele>1171.0231933594</ele>
        <time>2019-05-29T08:27:44Z</time>
      </trkpt>
      <trkpt lat="42.83206" lon="0.94472">
        <ele>1173.4265136719</ele>
        <time>2019-05-29T08:28:04Z</time>
      </trkpt>
      <trkpt lat="42.83199" lon="0.94491">
        <ele>1173.9069824219</ele>
        <time>2019-05-29T08:28:19Z</time>
      </trkpt>
      <trkpt lat="42.83198" lon="0.94496">
        <ele>1173.4265136719</ele>
        <time>2019-05-29T08:28:23Z</time>
      </trkpt>
      <trkpt lat="42.83196" lon="0.94516">
        <ele>1177.2717285156</ele>
        <time>2019-05-29T08:28:39Z</time>
      </trkpt>
      <trkpt lat="42.83195" lon="0.9453">
        <ele>1179.6748046875</ele>
        <time>2019-05-29T08:28:54Z</time>
      </trkpt>
      <trkpt lat="42.83192" lon="0.94536">
        <ele>1179.1940917969</ele>
        <time>2019-05-29T08:29:01Z</time>
      </trkpt>
      <trkpt lat="42.83177" lon="0.94559">
        <ele>1182.0783691406</ele>
        <time>2019-05-29T08:29:24Z</time>
      </trkpt>
      <trkpt lat="42.83173" lon="0.94565">
        <ele>1184.4816894531</ele>
        <time>2019-05-29T08:29:32Z</time>
      </trkpt>
      <trkpt lat="42.83164" lon="0.94572">
        <ele>1187.3654785156</ele>
        <time>2019-05-29T08:29:48Z</time>
      </trkpt>
      <trkpt lat="42.83158" lon="0.94573">
        <ele>1189.7687988281</ele>
        <time>2019-05-29T08:29:57Z</time>
      </trkpt>
      <trkpt lat="42.83149" lon="0.94578">
        <ele>1191.69140625</ele>
        <time>2019-05-29T08:30:11Z</time>
      </trkpt>
      <trkpt lat="42.83141" lon="0.94584">
        <ele>1195.0559082031</ele>
        <time>2019-05-29T08:30:26Z</time>
      </trkpt>
      <trkpt lat="42.8314" lon="0.94587">
        <ele>1195.0559082031</ele>
        <time>2019-05-29T08:30:42Z</time>
      </trkpt>
      <trkpt lat="42.83145" lon="0.94592">
        <ele>1194.0947265625</ele>
        <time>2019-05-29T08:30:56Z</time>
      </trkpt>
      <trkpt lat="42.83145" lon="0.94592">
        <ele>1194.5751953125</ele>
        <time>2019-05-29T08:30:57Z</time>
      </trkpt>
      <trkpt lat="42.83148" lon="0.94594">
        <ele>1193.6140136719</ele>
        <time>2019-05-29T08:31:01Z</time>
      </trkpt>
      <trkpt lat="42.83161" lon="0.94598">
        <ele>1195.5366210938</ele>
        <time>2019-05-29T08:31:14Z</time>
      </trkpt>
      <trkpt lat="42.83163" lon="0.94623">
        <ele>1195.5366210938</ele>
        <time>2019-05-29T08:31:31Z</time>
      </trkpt>
      <trkpt lat="42.83161" lon="0.9466">
        <ele>1197.4594726562</ele>
        <time>2019-05-29T08:31:55Z</time>
      </trkpt>
      <trkpt lat="42.83159" lon="0.94697">
        <ele>1199.3820800781</ele>
        <time>2019-05-29T08:32:20Z</time>
      </trkpt>
      <trkpt lat="42.8316" lon="0.94736">
        <ele>1201.7854003906</ele>
        <time>2019-05-29T08:32:44Z</time>
      </trkpt>
      <trkpt lat="42.83157" lon="0.94767">
        <ele>1203.2272949219</ele>
        <time>2019-05-29T08:33:05Z</time>
      </trkpt>
      <trkpt lat="42.83156" lon="0.94781">
        <ele>1204.6691894531</ele>
        <time>2019-05-29T08:33:27Z</time>
      </trkpt>
      <trkpt lat="42.83154" lon="0.94803">
        <ele>1206.591796875</ele>
        <time>2019-05-29T08:33:56Z</time>
      </trkpt>
      <trkpt lat="42.83152" lon="0.94824">
        <ele>1208.0339355469</ele>
        <time>2019-05-29T08:34:09Z</time>
      </trkpt>
      <trkpt lat="42.83149" lon="0.9484">
        <ele>1209.4758300781</ele>
        <time>2019-05-29T08:34:21Z</time>
      </trkpt>
      <trkpt lat="42.83145" lon="0.9486">
        <ele>1210.4370117188</ele>
        <time>2019-05-29T08:34:37Z</time>
      </trkpt>
      <trkpt lat="42.83139" lon="0.94883">
        <ele>1213.3212890625</ele>
        <time>2019-05-29T08:34:57Z</time>
      </trkpt>
      <trkpt lat="42.83137" lon="0.94906">
        <ele>1215.2438964844</ele>
        <time>2019-05-29T08:35:15Z</time>
      </trkpt>
      <trkpt lat="42.83134" lon="0.94927">
        <ele>1217.6469726562</ele>
        <time>2019-05-29T08:35:32Z</time>
      </trkpt>
      <trkpt lat="42.83131" lon="0.94945">
        <ele>1219.5698242188</ele>
        <time>2019-05-29T08:35:56Z</time>
      </trkpt>
      <trkpt lat="42.83133" lon="0.94959">
        <ele>1219.5698242188</ele>
        <time>2019-05-29T08:36:13Z</time>
      </trkpt>
      <trkpt lat="42.83129" lon="0.94976">
        <ele>1222.9343261719</ele>
        <time>2019-05-29T08:36:30Z</time>
      </trkpt>
      <trkpt lat="42.83131" lon="0.94995">
        <ele>1223.4150390625</ele>
        <time>2019-05-29T08:36:49Z</time>
      </trkpt>
      <trkpt lat="42.83131" lon="0.95006">
        <ele>1225.3374023438</ele>
        <time>2019-05-29T08:37:10Z</time>
      </trkpt>
      <trkpt lat="42.83132" lon="0.95022">
        <ele>1226.7795410156</ele>
        <time>2019-05-29T08:37:29Z</time>
      </trkpt>
      <trkpt lat="42.83132" lon="0.95041">
        <ele>1229.1828613281</ele>
        <time>2019-05-29T08:37:47Z</time>
      </trkpt>
      <trkpt lat="42.83131" lon="0.95061">
        <ele>1231.1057128906</ele>
        <time>2019-05-29T08:38:04Z</time>
      </trkpt>
      <trkpt lat="42.83132" lon="0.95086">
        <ele>1233.5087890625</ele>
        <time>2019-05-29T08:38:25Z</time>
      </trkpt>
      <trkpt lat="42.83137" lon="0.95106">
        <ele>1235.4313964844</ele>
        <time>2019-05-29T08:38:43Z</time>
      </trkpt>
      <trkpt lat="42.83141" lon="0.95129">
        <ele>1237.8347167969</ele>
        <time>2019-05-29T08:39:04Z</time>
      </trkpt>
      <trkpt lat="42.83142" lon="0.95143">
        <ele>1241.6799316406</ele>
        <time>2019-05-29T08:39:17Z</time>
      </trkpt>
      <trkpt lat="42.83148" lon="0.95171">
        <ele>1244.5639648438</ele>
        <time>2019-05-29T08:39:40Z</time>
      </trkpt>
      <trkpt lat="42.83157" lon="0.95194">
        <ele>1246.9672851562</ele>
        <time>2019-05-29T08:40:06Z</time>
      </trkpt>
      <trkpt lat="42.83162" lon="0.95207">
        <ele>1249.8513183594</ele>
        <time>2019-05-29T08:40:37Z</time>
      </trkpt>
      <trkpt lat="42.83166" lon="0.95214">
        <ele>1252.2543945312</ele>
        <time>2019-05-29T08:40:58Z</time>
      </trkpt>
      <trkpt lat="42.83173" lon="0.95226">
        <ele>1253.6965332031</ele>
        <time>2019-05-29T08:41:13Z</time>
      </trkpt>
      <trkpt lat="42.83172" lon="0.95227">
        <ele>1252.7351074219</ele>
        <time>2019-05-29T08:41:39Z</time>
      </trkpt>
      <trkpt lat="42.83174" lon="0.95235">
        <ele>1255.1384277344</ele>
        <time>2019-05-29T08:41:58Z</time>
      </trkpt>
      <trkpt lat="42.83166" lon="0.95241">
        <ele>1258.9836425781</ele>
        <time>2019-05-29T08:42:16Z</time>
      </trkpt>
      <trkpt lat="42.83161" lon="0.9524">
        <ele>1258.9836425781</ele>
        <time>2019-05-29T08:42:22Z</time>
      </trkpt>
      <trkpt lat="42.83149" lon="0.95238">
        <ele>1261.3872070312</ele>
        <time>2019-05-29T08:42:38Z</time>
      </trkpt>
      <trkpt lat="42.83143" lon="0.95242">
        <ele>1263.7902832031</ele>
        <time>2019-05-29T08:42:55Z</time>
      </trkpt>
      <trkpt lat="42.83146" lon="0.95251">
        <ele>1264.7517089844</ele>
        <time>2019-05-29T08:43:07Z</time>
      </trkpt>
      <trkpt lat="42.83153" lon="0.95267">
        <ele>1267.1550292969</ele>
        <time>2019-05-29T08:43:24Z</time>
      </trkpt>
      <trkpt lat="42.83161" lon="0.95281">
        <ele>1270.0388183594</ele>
        <time>2019-05-29T08:43:40Z</time>
      </trkpt>
      <trkpt lat="42.83169" lon="0.95295">
        <ele>1272.9228515625</ele>
        <time>2019-05-29T08:43:55Z</time>
      </trkpt>
      <trkpt lat="42.83163" lon="0.95301">
        <ele>1276.2875976562</ele>
        <time>2019-05-29T08:44:10Z</time>
      </trkpt>
      <trkpt lat="42.83158" lon="0.95302">
        <ele>1275.806640625</ele>
        <time>2019-05-29T08:44:14Z</time>
      </trkpt>
      <trkpt lat="42.83142" lon="0.95303">
        <ele>1279.6520996094</ele>
        <time>2019-05-29T08:44:31Z</time>
      </trkpt>
      <trkpt lat="42.83129" lon="0.95305">
        <ele>1283.0166015625</ele>
        <time>2019-05-29T08:44:50Z</time>
      </trkpt>
      <trkpt lat="42.83135" lon="0.95318">
        <ele>1284.939453125</ele>
        <time>2019-05-29T08:45:08Z</time>
      </trkpt>
      <trkpt lat="42.83135" lon="0.95319">
        <ele>1286.3813476562</ele>
        <time>2019-05-29T08:45:10Z</time>
      </trkpt>
      <trkpt lat="42.83146" lon="0.95336">
        <ele>1288.3039550781</ele>
        <time>2019-05-29T08:45:29Z</time>
      </trkpt>
      <trkpt lat="42.83146" lon="0.95339">
        <ele>1289.2651367188</ele>
        <time>2019-05-29T08:45:34Z</time>
      </trkpt>
      <trkpt lat="42.83136" lon="0.95337">
        <ele>1290.70703125</ele>
        <time>2019-05-29T08:45:45Z</time>
      </trkpt>
      <trkpt lat="42.83133" lon="0.95335">
        <ele>1291.6684570312</ele>
        <time>2019-05-29T08:45:48Z</time>
      </trkpt>
      <trkpt lat="42.83131" lon="0.95334">
        <ele>1290.70703125</ele>
        <time>2019-05-29T08:45:51Z</time>
      </trkpt>
      <trkpt lat="42.83128" lon="0.95332">
        <ele>1291.1877441406</ele>
        <time>2019-05-29T08:45:54Z</time>
      </trkpt>
      <trkpt lat="42.83124" lon="0.9533">
        <ele>1292.1494140625</ele>
        <time>2019-05-29T08:45:58Z</time>
      </trkpt>
      <trkpt lat="42.83123" lon="0.95343">
        <ele>1295.5139160156</ele>
        <time>2019-05-29T08:46:13Z</time>
      </trkpt>
      <trkpt lat="42.8313" lon="0.95358">
        <ele>1296.9558105469</ele>
        <time>2019-05-29T08:46:28Z</time>
      </trkpt>
      <trkpt lat="42.83133" lon="0.9537">
        <ele>1300.3205566406</ele>
        <time>2019-05-29T08:46:44Z</time>
      </trkpt>
      <trkpt lat="42.83121" lon="0.95368">
        <ele>1302.7236328125</ele>
        <time>2019-05-29T08:46:58Z</time>
      </trkpt>
      <trkpt lat="42.83112" lon="0.95364">
        <ele>1304.6462402344</ele>
        <time>2019-05-29T08:47:08Z</time>
      </trkpt>
      <trkpt lat="42.83111" lon="0.95371">
        <ele>1306.5688476562</ele>
        <time>2019-05-29T08:47:17Z</time>
      </trkpt>
      <trkpt lat="42.83114" lon="0.95379">
        <ele>1307.0495605469</ele>
        <time>2019-05-29T08:47:23Z</time>
      </trkpt>
      <trkpt lat="42.83117" lon="0.95392">
        <ele>1308.9724121094</ele>
        <time>2019-05-29T08:47:38Z</time>
      </trkpt>
      <trkpt lat="42.83121" lon="0.95404">
        <ele>1312.3369140625</ele>
        <time>2019-05-29T08:47:54Z</time>
      </trkpt>
      <trkpt lat="42.83117" lon="0.95401">
        <ele>1312.3369140625</ele>
        <time>2019-05-29T08:48:00Z</time>
      </trkpt>
      <trkpt lat="42.83101" lon="0.95386">
        <ele>1315.2209472656</ele>
        <time>2019-05-29T08:48:20Z</time>
      </trkpt>
      <trkpt lat="42.83095" lon="0.95384">
        <ele>1317.1435546875</ele>
        <time>2019-05-29T08:48:26Z</time>
      </trkpt>
      <trkpt lat="42.83093" lon="0.95394">
        <ele>1318.5854492188</ele>
        <time>2019-05-29T08:48:34Z</time>
      </trkpt>
      <trkpt lat="42.83093" lon="0.9541">
        <ele>1321.9499511719</ele>
        <time>2019-05-29T08:48:49Z</time>
      </trkpt>
      <trkpt lat="42.8309" lon="0.95421">
        <ele>1324.8342285156</ele>
        <time>2019-05-29T08:49:06Z</time>
      </trkpt>
      <trkpt lat="42.83083" lon="0.9542">
        <ele>1328.6794433594</ele>
        <time>2019-05-29T08:49:20Z</time>
      </trkpt>
      <trkpt lat="42.83079" lon="0.95419">
        <ele>1329.640625</ele>
        <time>2019-05-29T08:49:24Z</time>
      </trkpt>
      <trkpt lat="42.83075" lon="0.95413">
        <ele>1330.6020507812</ele>
        <time>2019-05-29T08:49:32Z</time>
      </trkpt>
      <trkpt lat="42.83066" lon="0.95404">
        <ele>1333.4858398438</ele>
        <time>2019-05-29T08:49:47Z</time>
      </trkpt>
      <trkpt lat="42.83064" lon="0.95412">
        <ele>1335.4084472656</ele>
        <time>2019-05-29T08:50:00Z</time>
      </trkpt>
      <trkpt lat="42.83063" lon="0.95437">
        <ele>1338.2924804688</ele>
        <time>2019-05-29T08:50:19Z</time>
      </trkpt>
      <trkpt lat="42.83062" lon="0.95438">
        <ele>1339.2536621094</ele>
        <time>2019-05-29T08:50:21Z</time>
      </trkpt>
      <trkpt lat="42.8306" lon="0.95437">
        <ele>1339.734375</ele>
        <time>2019-05-29T08:50:24Z</time>
      </trkpt>
      <trkpt lat="42.83052" lon="0.95424">
        <ele>1342.6186523438</ele>
        <time>2019-05-29T08:50:41Z</time>
      </trkpt>
      <trkpt lat="42.83044" lon="0.95418">
        <ele>1345.9831542969</ele>
        <time>2019-05-29T08:50:54Z</time>
      </trkpt>
      <trkpt lat="42.83043" lon="0.95419">
        <ele>1345.9831542969</ele>
        <time>2019-05-29T08:50:55Z</time>
      </trkpt>
      <trkpt lat="42.83042" lon="0.95439">
        <ele>1347.9057617188</ele>
        <time>2019-05-29T08:51:10Z</time>
      </trkpt>
      <trkpt lat="42.8304" lon="0.95455">
        <ele>1351.2702636719</ele>
        <time>2019-05-29T08:51:25Z</time>
      </trkpt>
      <trkpt lat="42.83036" lon="0.95453">
        <ele>1354.154296875</ele>
        <time>2019-05-29T08:51:41Z</time>
      </trkpt>
      <trkpt lat="42.83029" lon="0.95448">
        <ele>1357.5190429688</ele>
        <time>2019-05-29T08:51:54Z</time>
      </trkpt>
      <trkpt lat="42.8302" lon="0.95444">
        <ele>1360.4028320312</ele>
        <time>2019-05-29T08:52:09Z</time>
      </trkpt>
      <trkpt lat="42.83013" lon="0.95439">
        <ele>1363.7673339844</ele>
        <time>2019-05-29T08:52:25Z</time>
      </trkpt>
      <trkpt lat="42.83009" lon="0.95432">
        <ele>1366.6513671875</ele>
        <time>2019-05-29T08:52:38Z</time>
      </trkpt>
      <trkpt lat="42.83" lon="0.95426">
        <ele>1370.0158691406</ele>
        <time>2019-05-29T08:52:58Z</time>
      </trkpt>
      <trkpt lat="42.82991" lon="0.95419">
        <ele>1373.380859375</ele>
        <time>2019-05-29T08:53:14Z</time>
      </trkpt>
      <trkpt lat="42.82989" lon="0.95409">
        <ele>1376.2646484375</ele>
        <time>2019-05-29T08:53:31Z</time>
      </trkpt>
      <trkpt lat="42.82986" lon="0.95399">
        <ele>1379.1484375</ele>
        <time>2019-05-29T08:53:45Z</time>
      </trkpt>
      <trkpt lat="42.82988" lon="0.95385">
        <ele>1382.5131835938</ele>
        <time>2019-05-29T08:54:01Z</time>
      </trkpt>
      <trkpt lat="42.82988" lon="0.9537">
        <ele>1385.3969726562</ele>
        <time>2019-05-29T08:54:15Z</time>
      </trkpt>
      <trkpt lat="42.82985" lon="0.95357">
        <ele>1388.7619628906</ele>
        <time>2019-05-29T08:54:29Z</time>
      </trkpt>
      <trkpt lat="42.82982" lon="0.95355">
        <ele>1391.6457519531</ele>
        <time>2019-05-29T08:54:41Z</time>
      </trkpt>
      <trkpt lat="42.82983" lon="0.9535">
        <ele>1394.5295410156</ele>
        <time>2019-05-29T08:55:01Z</time>
      </trkpt>
      <trkpt lat="42.82979" lon="0.95334">
        <ele>1396.9328613281</ele>
        <time>2019-05-29T08:55:18Z</time>
      </trkpt>
      <trkpt lat="42.82974" lon="0.95322">
        <ele>1399.8168945312</ele>
        <time>2019-05-29T08:55:31Z</time>
      </trkpt>
      <trkpt lat="42.82968" lon="0.95327">
        <ele>1402.7006835938</ele>
        <time>2019-05-29T08:55:48Z</time>
      </trkpt>
      <trkpt lat="42.82961" lon="0.95339">
        <ele>1406.0654296875</ele>
        <time>2019-05-29T08:56:18Z</time>
      </trkpt>
      <trkpt lat="42.82961" lon="0.95337">
        <ele>1407.98828125</ele>
        <time>2019-05-29T08:56:28Z</time>
      </trkpt>
      <trkpt lat="42.82957" lon="0.95322">
        <ele>1411.3527832031</ele>
        <time>2019-05-29T08:56:44Z</time>
      </trkpt>
      <trkpt lat="42.82953" lon="0.95302">
        <ele>1414.2365722656</ele>
        <time>2019-05-29T08:57:01Z</time>
      </trkpt>
      <trkpt lat="42.82946" lon="0.95284">
        <ele>1417.6010742188</ele>
        <time>2019-05-29T08:57:18Z</time>
      </trkpt>
      <trkpt lat="42.82945" lon="0.95283">
        <ele>1417.6010742188</ele>
        <time>2019-05-29T08:57:19Z</time>
      </trkpt>
      <trkpt lat="42.8294" lon="0.95266">
        <ele>1420.9660644531</ele>
        <time>2019-05-29T08:57:37Z</time>
      </trkpt>
      <trkpt lat="42.82938" lon="0.95253">
        <ele>1424.3305664062</ele>
        <time>2019-05-29T08:57:52Z</time>
      </trkpt>
      <trkpt lat="42.82932" lon="0.95247">
        <ele>1427.2145996094</ele>
        <time>2019-05-29T08:58:03Z</time>
      </trkpt>
      <trkpt lat="42.82927" lon="0.95237">
        <ele>1431.0598144531</ele>
        <time>2019-05-29T08:58:20Z</time>
      </trkpt>
      <trkpt lat="42.82923" lon="0.95242">
        <ele>1431.5402832031</ele>
        <time>2019-05-29T08:58:46Z</time>
      </trkpt>
      <trkpt lat="42.82919" lon="0.95232">
        <ele>1434.9050292969</ele>
        <time>2019-05-29T08:58:58Z</time>
      </trkpt>
      <trkpt lat="42.8292" lon="0.95224">
        <ele>1437.3083496094</ele>
        <time>2019-05-29T08:59:09Z</time>
      </trkpt>
      <trkpt lat="42.82912" lon="0.95224">
        <ele>1440.6728515625</ele>
        <time>2019-05-29T08:59:23Z</time>
      </trkpt>
      <trkpt lat="42.82912" lon="0.95231">
        <ele>1443.5568847656</ele>
        <time>2019-05-29T08:59:37Z</time>
      </trkpt>
      <trkpt lat="42.82909" lon="0.95241">
        <ele>1445.9602050781</ele>
        <time>2019-05-29T08:59:57Z</time>
      </trkpt>
      <trkpt lat="42.82904" lon="0.95249">
        <ele>1448.8439941406</ele>
        <time>2019-05-29T09:00:16Z</time>
      </trkpt>
      <trkpt lat="42.82901" lon="0.95253">
        <ele>1452.2087402344</ele>
        <time>2019-05-29T09:00:27Z</time>
      </trkpt>
      <trkpt lat="42.82893" lon="0.9524">
        <ele>1455.0927734375</ele>
        <time>2019-05-29T09:00:43Z</time>
      </trkpt>
      <trkpt lat="42.82887" lon="0.95229">
        <ele>1458.9379882812</ele>
        <time>2019-05-29T09:00:56Z</time>
      </trkpt>
      <trkpt lat="42.82885" lon="0.95222">
        <ele>1458.9379882812</ele>
        <time>2019-05-29T09:01:03Z</time>
      </trkpt>
      <trkpt lat="42.82879" lon="0.95208">
        <ele>1461.3413085938</ele>
        <time>2019-05-29T09:01:19Z</time>
      </trkpt>
      <trkpt lat="42.82871" lon="0.95193">
        <ele>1465.1865234375</ele>
        <time>2019-05-29T09:01:35Z</time>
      </trkpt>
      <trkpt lat="42.82867" lon="0.95196">
        <ele>1467.1091308594</ele>
        <time>2019-05-29T09:01:48Z</time>
      </trkpt>
      <trkpt lat="42.82868" lon="0.95214">
        <ele>1469.0319824219</ele>
        <time>2019-05-29T09:02:03Z</time>
      </trkpt>
      <trkpt lat="42.82867" lon="0.95223">
        <ele>1471.9157714844</ele>
        <time>2019-05-29T09:02:14Z</time>
      </trkpt>
      <trkpt lat="42.82863" lon="0.95217">
        <ele>1474.3190917969</ele>
        <time>2019-05-29T09:02:24Z</time>
      </trkpt>
      <trkpt lat="42.82858" lon="0.95209">
        <ele>1476.2416992188</ele>
        <time>2019-05-29T09:02:34Z</time>
      </trkpt>
      <trkpt lat="42.8285" lon="0.95197">
        <ele>1478.6450195312</ele>
        <time>2019-05-29T09:02:54Z</time>
      </trkpt>
      <trkpt lat="42.82841" lon="0.95172">
        <ele>1481.5288085938</ele>
        <time>2019-05-29T09:03:14Z</time>
      </trkpt>
      <trkpt lat="42.82841" lon="0.95168">
        <ele>1482.490234375</ele>
        <time>2019-05-29T09:03:18Z</time>
      </trkpt>
      <trkpt lat="42.82825" lon="0.95163">
        <ele>1483.9321289062</ele>
        <time>2019-05-29T09:03:37Z</time>
      </trkpt>
      <trkpt lat="42.8282" lon="0.95164">
        <ele>1485.3742675781</ele>
        <time>2019-05-29T09:03:43Z</time>
      </trkpt>
      <trkpt lat="42.82808" lon="0.95165">
        <ele>1486.3356933594</ele>
        <time>2019-05-29T09:03:55Z</time>
      </trkpt>
      <trkpt lat="42.82798" lon="0.95164">
        <ele>1489.2194824219</ele>
        <time>2019-05-29T09:04:11Z</time>
      </trkpt>
      <trkpt lat="42.828" lon="0.95167">
        <ele>1489.7001953125</ele>
        <time>2019-05-29T09:04:26Z</time>
      </trkpt>
      <trkpt lat="42.82799" lon="0.95166">
        <ele>1488.7390136719</ele>
        <time>2019-05-29T09:04:29Z</time>
      </trkpt>
      <trkpt lat="42.828" lon="0.95165">
        <ele>1487.7775878906</ele>
        <time>2019-05-29T09:05:25Z</time>
      </trkpt>
      <trkpt lat="42.828" lon="0.95165">
        <ele>1487.7775878906</ele>
        <time>2019-05-29T09:06:07Z</time>
      </trkpt>
      <trkpt lat="42.828" lon="0.95168">
        <ele>1490.6613769531</ele>
        <time>2019-05-29T09:06:39Z</time>
      </trkpt>
      <trkpt lat="42.82808" lon="0.95181">
        <ele>1493.5454101562</ele>
        <time>2019-05-29T09:06:56Z</time>
      </trkpt>
      <trkpt lat="42.82808" lon="0.95181">
        <ele>1493.5454101562</ele>
        <time>2019-05-29T09:06:57Z</time>
      </trkpt>
      <trkpt lat="42.82809" lon="0.95192">
        <ele>1496.9099121094</ele>
        <time>2019-05-29T09:07:15Z</time>
      </trkpt>
      <trkpt lat="42.82804" lon="0.95189">
        <ele>1495.9487304688</ele>
        <time>2019-05-29T09:07:21Z</time>
      </trkpt>
      <trkpt lat="42.82797" lon="0.95186">
        <ele>1497.8713378906</ele>
        <time>2019-05-29T09:07:28Z</time>
      </trkpt>
      <trkpt lat="42.82791" lon="0.9519">
        <ele>1501.2360839844</ele>
        <time>2019-05-29T09:07:46Z</time>
      </trkpt>
      <trkpt lat="42.82793" lon="0.95193">
        <ele>1502.197265625</ele>
        <time>2019-05-29T09:07:50Z</time>
      </trkpt>
      <trkpt lat="42.82793" lon="0.95203">
        <ele>1506.0424804688</ele>
        <time>2019-05-29T09:08:06Z</time>
      </trkpt>
      <trkpt lat="42.82783" lon="0.95201">
        <ele>1508.4458007812</ele>
        <time>2019-05-29T09:08:26Z</time>
      </trkpt>
      <trkpt lat="42.82792" lon="0.95222">
        <ele>1511.810546875</ele>
        <time>2019-05-29T09:08:46Z</time>
      </trkpt>
      <trkpt lat="42.82796" lon="0.95241">
        <ele>1515.1750488281</ele>
        <time>2019-05-29T09:09:02Z</time>
      </trkpt>
      <trkpt lat="42.82796" lon="0.9525">
        <ele>1518.5397949219</ele>
        <time>2019-05-29T09:09:18Z</time>
      </trkpt>
      <trkpt lat="42.82794" lon="0.95249">
        <ele>1519.0205078125</ele>
        <time>2019-05-29T09:09:20Z</time>
      </trkpt>
      <trkpt lat="42.82791" lon="0.95246">
        <ele>1519.5012207031</ele>
        <time>2019-05-29T09:09:25Z</time>
      </trkpt>
      <trkpt lat="42.82781" lon="0.95234">
        <ele>1521.904296875</ele>
        <time>2019-05-29T09:09:42Z</time>
      </trkpt>
      <trkpt lat="42.82768" lon="0.95224">
        <ele>1525.7495117188</ele>
        <time>2019-05-29T09:10:02Z</time>
      </trkpt>
      <trkpt lat="42.82756" lon="0.95221">
        <ele>1527.6721191406</ele>
        <time>2019-05-29T09:10:18Z</time>
      </trkpt>
      <trkpt lat="42.8275" lon="0.95226">
        <ele>1529.5947265625</ele>
        <time>2019-05-29T09:10:28Z</time>
      </trkpt>
      <trkpt lat="42.82751" lon="0.95233">
        <ele>1531.998046875</ele>
        <time>2019-05-29T09:10:44Z</time>
      </trkpt>
      <trkpt lat="42.8275" lon="0.95238">
        <ele>1533.9208984375</ele>
        <time>2019-05-29T09:10:58Z</time>
      </trkpt>
      <trkpt lat="42.82744" lon="0.95243">
        <ele>1536.8046875</ele>
        <time>2019-05-29T09:11:07Z</time>
      </trkpt>
      <trkpt lat="42.82744" lon="0.95243">
        <ele>1536.8046875</ele>
        <time>2019-05-29T09:11:08Z</time>
      </trkpt>
      <trkpt lat="42.82739" lon="0.95246">
        <ele>1537.7661132812</ele>
        <time>2019-05-29T09:11:14Z</time>
      </trkpt>
      <trkpt lat="42.82724" lon="0.95252">
        <ele>1539.2080078125</ele>
        <time>2019-05-29T09:11:32Z</time>
      </trkpt>
      <trkpt lat="42.82712" lon="0.95255">
        <ele>1542.5727539062</ele>
        <time>2019-05-29T09:11:47Z</time>
      </trkpt>
      <trkpt lat="42.82705" lon="0.95261">
        <ele>1544.9758300781</ele>
        <time>2019-05-29T09:12:06Z</time>
      </trkpt>
      <trkpt lat="42.82707" lon="0.95262">
        <ele>1545.4565429688</ele>
        <time>2019-05-29T09:12:09Z</time>
      </trkpt>
      <trkpt lat="42.82723" lon="0.95267">
        <ele>1548.3405761719</ele>
        <time>2019-05-29T09:12:29Z</time>
      </trkpt>
      <trkpt lat="42.8273" lon="0.95269">
        <ele>1549.7827148438</ele>
        <time>2019-05-29T09:12:45Z</time>
      </trkpt>
      <trkpt lat="42.82741" lon="0.95274">
        <ele>1550.7438964844</ele>
        <time>2019-05-29T09:13:00Z</time>
      </trkpt>
      <trkpt lat="42.82753" lon="0.95286">
        <ele>1554.5891113281</ele>
        <time>2019-05-29T09:13:18Z</time>
      </trkpt>
      <trkpt lat="42.82761" lon="0.95301">
        <ele>1556.0310058594</ele>
        <time>2019-05-29T09:13:38Z</time>
      </trkpt>
      <trkpt lat="42.82749" lon="0.953">
        <ele>1559.3957519531</ele>
        <time>2019-05-29T09:13:52Z</time>
      </trkpt>
      <trkpt lat="42.82738" lon="0.95299">
        <ele>1561.7990722656</ele>
        <time>2019-05-29T09:14:05Z</time>
      </trkpt>
      <trkpt lat="42.82721" lon="0.953">
        <ele>1564.2023925781</ele>
        <time>2019-05-29T09:14:23Z</time>
      </trkpt>
      <trkpt lat="42.82721" lon="0.95308">
        <ele>1567.5668945312</ele>
        <time>2019-05-29T09:14:38Z</time>
      </trkpt>
      <trkpt lat="42.82734" lon="0.95322">
        <ele>1570.4509277344</ele>
        <time>2019-05-29T09:14:56Z</time>
      </trkpt>
      <trkpt lat="42.8274" lon="0.95342">
        <ele>1573.8154296875</ele>
        <time>2019-05-29T09:15:15Z</time>
      </trkpt>
      <trkpt lat="42.8274" lon="0.95346">
        <ele>1573.8154296875</ele>
        <time>2019-05-29T09:15:18Z</time>
      </trkpt>
      <trkpt lat="42.82741" lon="0.95351">
        <ele>1574.7768554688</ele>
        <time>2019-05-29T09:15:22Z</time>
      </trkpt>
      <trkpt lat="42.82736" lon="0.95356">
        <ele>1577.1801757812</ele>
        <time>2019-05-29T09:15:39Z</time>
      </trkpt>
      <trkpt lat="42.82726" lon="0.95345">
        <ele>1579.1025390625</ele>
        <time>2019-05-29T09:15:53Z</time>
      </trkpt>
      <trkpt lat="42.82718" lon="0.95345">
        <ele>1581.9868164062</ele>
        <time>2019-05-29T09:16:07Z</time>
      </trkpt>
      <trkpt lat="42.82724" lon="0.95369">
        <ele>1585.3513183594</ele>
        <time>2019-05-29T09:16:28Z</time>
      </trkpt>
      <trkpt lat="42.82722" lon="0.95382">
        <ele>1587.7546386719</ele>
        <time>2019-05-29T09:16:46Z</time>
      </trkpt>
      <trkpt lat="42.82713" lon="0.95369">
        <ele>1590.6384277344</ele>
        <time>2019-05-29T09:16:59Z</time>
      </trkpt>
      <trkpt lat="42.82694" lon="0.95363">
        <ele>1593.5224609375</ele>
        <time>2019-05-29T09:17:24Z</time>
      </trkpt>
      <trkpt lat="42.82683" lon="0.95361">
        <ele>1596.8872070312</ele>
        <time>2019-05-29T09:17:40Z</time>
      </trkpt>
      <trkpt lat="42.82681" lon="0.95366">
        <ele>1599.7712402344</ele>
        <time>2019-05-29T09:17:56Z</time>
      </trkpt>
      <trkpt lat="42.82685" lon="0.95371">
        <ele>1600.251953125</ele>
        <time>2019-05-29T09:18:02Z</time>
      </trkpt>
      <trkpt lat="42.82695" lon="0.95391">
        <ele>1603.1357421875</ele>
        <time>2019-05-29T09:18:22Z</time>
      </trkpt>
      <trkpt lat="42.82694" lon="0.95407">
        <ele>1605.0583496094</ele>
        <time>2019-05-29T09:18:39Z</time>
      </trkpt>
      <trkpt lat="42.8268" lon="0.95396">
        <ele>1608.4228515625</ele>
        <time>2019-05-29T09:18:58Z</time>
      </trkpt>
      <trkpt lat="42.82675" lon="0.95394">
        <ele>1609.3842773438</ele>
        <time>2019-05-29T09:19:13Z</time>
      </trkpt>
      <trkpt lat="42.82661" lon="0.95392">
        <ele>1611.3068847656</ele>
        <time>2019-05-29T09:19:30Z</time>
      </trkpt>
      <trkpt lat="42.82672" lon="0.95413">
        <ele>1614.1909179688</ele>
        <time>2019-05-29T09:19:51Z</time>
      </trkpt>
      <trkpt lat="42.82674" lon="0.95432">
        <ele>1617.0749511719</ele>
        <time>2019-05-29T09:20:11Z</time>
      </trkpt>
      <trkpt lat="42.8267" lon="0.95428">
        <ele>1618.0361328125</ele>
        <time>2019-05-29T09:20:16Z</time>
      </trkpt>
      <trkpt lat="42.82653" lon="0.95418">
        <ele>1621.4006347656</ele>
        <time>2019-05-29T09:20:38Z</time>
      </trkpt>
      <trkpt lat="42.82637" lon="0.95409">
        <ele>1623.8039550781</ele>
        <time>2019-05-29T09:20:58Z</time>
      </trkpt>
      <trkpt lat="42.82637" lon="0.9541">
        <ele>1624.2846679688</ele>
        <time>2019-05-29T09:20:59Z</time>
      </trkpt>
      <trkpt lat="42.82645" lon="0.95433">
        <ele>1627.6491699219</ele>
        <time>2019-05-29T09:21:18Z</time>
      </trkpt>
      <trkpt lat="42.82651" lon="0.95459">
        <ele>1630.5334472656</ele>
        <time>2019-05-29T09:21:39Z</time>
      </trkpt>
      <trkpt lat="42.82644" lon="0.95459">
        <ele>1632.4560546875</ele>
        <time>2019-05-29T09:21:54Z</time>
      </trkpt>
      <trkpt lat="42.8264" lon="0.95455">
        <ele>1631.9753417969</ele>
        <time>2019-05-29T09:22:00Z</time>
      </trkpt>
      <trkpt lat="42.82623" lon="0.95441">
        <ele>1635.8205566406</ele>
        <time>2019-05-29T09:22:21Z</time>
      </trkpt>
      <trkpt lat="42.82624" lon="0.95452">
        <ele>1639.1850585938</ele>
        <time>2019-05-29T09:22:33Z</time>
      </trkpt>
      <trkpt lat="42.82629" lon="0.95479">
        <ele>1642.5498046875</ele>
        <time>2019-05-29T09:22:55Z</time>
      </trkpt>
      <trkpt lat="42.82629" lon="0.95481">
        <ele>1642.0690917969</ele>
        <time>2019-05-29T09:22:56Z</time>
      </trkpt>
      <trkpt lat="42.82628" lon="0.95492">
        <ele>1643.5109863281</ele>
        <time>2019-05-29T09:23:16Z</time>
      </trkpt>
      <trkpt lat="42.82613" lon="0.95479">
        <ele>1646.8757324219</ele>
        <time>2019-05-29T09:23:36Z</time>
      </trkpt>
      <trkpt lat="42.82603" lon="0.95464">
        <ele>1649.2790527344</ele>
        <time>2019-05-29T09:23:52Z</time>
      </trkpt>
      <trkpt lat="42.826" lon="0.95471">
        <ele>1651.6823730469</ele>
        <time>2019-05-29T09:24:11Z</time>
      </trkpt>
      <trkpt lat="42.82601" lon="0.9549">
        <ele>1654.0856933594</ele>
        <time>2019-05-29T09:24:28Z</time>
      </trkpt>
      <trkpt lat="42.82604" lon="0.95516">
        <ele>1656.4887695312</ele>
        <time>2019-05-29T09:24:49Z</time>
      </trkpt>
      <trkpt lat="42.82602" lon="0.95538">
        <ele>1657.4501953125</ele>
        <time>2019-05-29T09:25:11Z</time>
      </trkpt>
      <trkpt lat="42.8259" lon="0.95518">
        <ele>1661.7763671875</ele>
        <time>2019-05-29T09:25:32Z</time>
      </trkpt>
      <trkpt lat="42.82591" lon="0.95525">
        <ele>1662.2568359375</ele>
        <time>2019-05-29T09:25:37Z</time>
      </trkpt>
      <trkpt lat="42.82593" lon="0.95543">
        <ele>1664.66015625</ele>
        <time>2019-05-29T09:25:49Z</time>
      </trkpt>
      <trkpt lat="42.82593" lon="0.95544">
        <ele>1664.66015625</ele>
        <time>2019-05-29T09:25:50Z</time>
      </trkpt>
      <trkpt lat="42.82592" lon="0.95559">
        <ele>1666.1020507812</ele>
        <time>2019-05-29T09:26:09Z</time>
      </trkpt>
      <trkpt lat="42.82592" lon="0.95573">
        <ele>1668.0246582031</ele>
        <time>2019-05-29T09:26:25Z</time>
      </trkpt>
      <trkpt lat="42.82593" lon="0.95581">
        <ele>1668.0246582031</ele>
        <time>2019-05-29T09:26:44Z</time>
      </trkpt>
      <trkpt lat="42.82593" lon="0.95586">
        <ele>1667.0634765625</ele>
        <time>2019-05-29T09:26:58Z</time>
      </trkpt>
      <trkpt lat="42.82588" lon="0.95606">
        <ele>1667.0634765625</ele>
        <time>2019-05-29T09:27:14Z</time>
      </trkpt>
      <trkpt lat="42.82581" lon="0.95624">
        <ele>1663.6987304688</ele>
        <time>2019-05-29T09:27:26Z</time>
      </trkpt>
      <trkpt lat="42.82572" lon="0.95643">
        <ele>1665.6215820312</ele>
        <time>2019-05-29T09:27:43Z</time>
      </trkpt>
      <trkpt lat="42.8257" lon="0.95652">
        <ele>1665.6215820312</ele>
        <time>2019-05-29T09:27:51Z</time>
      </trkpt>
      <trkpt lat="42.82554" lon="0.95673">
        <ele>1663.6987304688</ele>
        <time>2019-05-29T09:28:13Z</time>
      </trkpt>
      <trkpt lat="42.82549" lon="0.95684">
        <ele>1662.7375488281</ele>
        <time>2019-05-29T09:28:30Z</time>
      </trkpt>
      <trkpt lat="42.82547" lon="0.95688">
        <ele>1662.7375488281</ele>
        <time>2019-05-29T09:28:43Z</time>
      </trkpt>
      <trkpt lat="42.82547" lon="0.95689">
        <ele>1662.7375488281</ele>
        <time>2019-05-29T09:29:10Z</time>
      </trkpt>
      <trkpt lat="42.82546" lon="0.95696">
        <ele>1664.66015625</ele>
        <time>2019-05-29T09:29:24Z</time>
      </trkpt>
      <trkpt lat="42.82546" lon="0.95696">
        <ele>1664.1794433594</ele>
        <time>2019-05-29T09:29:27Z</time>
      </trkpt>
      <trkpt lat="42.82553" lon="0.95707">
        <ele>1664.1794433594</ele>
        <time>2019-05-29T09:29:40Z</time>
      </trkpt>
      <trkpt lat="42.82559" lon="0.95718">
        <ele>1665.1408691406</ele>
        <time>2019-05-29T09:29:51Z</time>
      </trkpt>
      <trkpt lat="42.82561" lon="0.95737">
        <ele>1668.5053710938</ele>
        <time>2019-05-29T09:30:10Z</time>
      </trkpt>
      <trkpt lat="42.82563" lon="0.9574">
        <ele>1668.0246582031</ele>
        <time>2019-05-29T09:30:15Z</time>
      </trkpt>
      <trkpt lat="42.82571" lon="0.95759">
        <ele>1667.5439453125</ele>
        <time>2019-05-29T09:30:33Z</time>
      </trkpt>
      <trkpt lat="42.82577" lon="0.95778">
        <ele>1667.0634765625</ele>
        <time>2019-05-29T09:30:48Z</time>
      </trkpt>
      <trkpt lat="42.82585" lon="0.95794">
        <ele>1666.5827636719</ele>
        <time>2019-05-29T09:31:06Z</time>
      </trkpt>
      <trkpt lat="42.82597" lon="0.95807">
        <ele>1666.1020507812</ele>
        <time>2019-05-29T09:31:21Z</time>
      </trkpt>
      <trkpt lat="42.82602" lon="0.95815">
        <ele>1665.1408691406</ele>
        <time>2019-05-29T09:31:31Z</time>
      </trkpt>
      <trkpt lat="42.82605" lon="0.95817">
        <ele>1665.6215820312</ele>
        <time>2019-05-29T09:31:34Z</time>
      </trkpt>
      <trkpt lat="42.82616" lon="0.95828">
        <ele>1665.1408691406</ele>
        <time>2019-05-29T09:31:49Z</time>
      </trkpt>
      <trkpt lat="42.82622" lon="0.95835">
        <ele>1667.5439453125</ele>
        <time>2019-05-29T09:31:59Z</time>
      </trkpt>
      <trkpt lat="42.82626" lon="0.95841">
        <ele>1668.5053710938</ele>
        <time>2019-05-29T09:32:06Z</time>
      </trkpt>
      <trkpt lat="42.82636" lon="0.95852">
        <ele>1670.9086914062</ele>
        <time>2019-05-29T09:32:23Z</time>
      </trkpt>
      <trkpt lat="42.8265" lon="0.95866">
        <ele>1671.3891601562</ele>
        <time>2019-05-29T09:32:42Z</time>
      </trkpt>
      <trkpt lat="42.82651" lon="0.95868">
        <ele>1671.3891601562</ele>
        <time>2019-05-29T09:33:17Z</time>
      </trkpt>
      <trkpt lat="42.82653" lon="0.95878">
        <ele>1672.3505859375</ele>
        <time>2019-05-29T09:33:42Z</time>
      </trkpt>
      <trkpt lat="42.82652" lon="0.9588">
        <ele>1672.3505859375</ele>
        <time>2019-05-29T09:34:10Z</time>
      </trkpt>
      <trkpt lat="42.82646" lon="0.95902">
        <ele>1672.8312988281</ele>
        <time>2019-05-29T09:34:28Z</time>
      </trkpt>
      <trkpt lat="42.82645" lon="0.95923">
        <ele>1671.3891601562</ele>
        <time>2019-05-29T09:34:46Z</time>
      </trkpt>
      <trkpt lat="42.82648" lon="0.95943">
        <ele>1671.3891601562</ele>
        <time>2019-05-29T09:35:03Z</time>
      </trkpt>
      <trkpt lat="42.82651" lon="0.9596">
        <ele>1671.3891601562</ele>
        <time>2019-05-29T09:35:19Z</time>
      </trkpt>
      <trkpt lat="42.82655" lon="0.95978">
        <ele>1670.9086914062</ele>
        <time>2019-05-29T09:35:35Z</time>
      </trkpt>
      <trkpt lat="42.82662" lon="0.95989">
        <ele>1668.9860839844</ele>
        <time>2019-05-29T09:35:52Z</time>
      </trkpt>
      <trkpt lat="42.82666" lon="0.95993">
        <ele>1668.5053710938</ele>
        <time>2019-05-29T09:36:00Z</time>
      </trkpt>
      <trkpt lat="42.82677" lon="0.95998">
        <ele>1667.5439453125</ele>
        <time>2019-05-29T09:36:15Z</time>
      </trkpt>
      <trkpt lat="42.82683" lon="0.96">
        <ele>1666.1020507812</ele>
        <time>2019-05-29T09:36:27Z</time>
      </trkpt>
      <trkpt lat="42.82696" lon="0.96002">
        <ele>1668.0246582031</ele>
        <time>2019-05-29T09:36:41Z</time>
      </trkpt>
      <trkpt lat="42.82696" lon="0.96002">
        <ele>1668.0246582031</ele>
        <time>2019-05-29T09:36:42Z</time>
      </trkpt>
      <trkpt lat="42.82706" lon="0.96011">
        <ele>1664.1794433594</ele>
        <time>2019-05-29T09:36:56Z</time>
      </trkpt>
      <trkpt lat="42.82706" lon="0.96012">
        <ele>1663.6987304688</ele>
        <time>2019-05-29T09:36:57Z</time>
      </trkpt>
      <trkpt lat="42.82713" lon="0.96025">
        <ele>1661.7763671875</ele>
        <time>2019-05-29T09:37:08Z</time>
      </trkpt>
      <trkpt lat="42.82718" lon="0.96041">
        <ele>1661.2956542969</ele>
        <time>2019-05-29T09:37:23Z</time>
      </trkpt>
      <trkpt lat="42.82727" lon="0.96065">
        <ele>1659.3728027344</ele>
        <time>2019-05-29T09:37:43Z</time>
      </trkpt>
      <trkpt lat="42.82731" lon="0.96073">
        <ele>1659.3728027344</ele>
        <time>2019-05-29T09:37:50Z</time>
      </trkpt>
      <trkpt lat="42.82743" lon="0.9609">
        <ele>1657.9309082031</ele>
        <time>2019-05-29T09:38:07Z</time>
      </trkpt>
      <trkpt lat="42.82748" lon="0.96096">
        <ele>1656.9694824219</ele>
        <time>2019-05-29T09:38:14Z</time>
      </trkpt>
      <trkpt lat="42.82767" lon="0.96111">
        <ele>1656.0080566406</ele>
        <time>2019-05-29T09:38:35Z</time>
      </trkpt>
      <trkpt lat="42.8278" lon="0.96122">
        <ele>1653.6049804688</ele>
        <time>2019-05-29T09:38:51Z</time>
      </trkpt>
      <trkpt lat="42.82796" lon="0.96133">
        <ele>1651.6823730469</ele>
        <time>2019-05-29T09:39:08Z</time>
      </trkpt>
      <trkpt lat="42.82813" lon="0.96143">
        <ele>1649.2790527344</ele>
        <time>2019-05-29T09:39:27Z</time>
      </trkpt>
      <trkpt lat="42.82828" lon="0.96151">
        <ele>1648.3176269531</ele>
        <time>2019-05-29T09:39:43Z</time>
      </trkpt>
      <trkpt lat="42.82853" lon="0.96152">
        <ele>1646.8757324219</ele>
        <time>2019-05-29T09:40:03Z</time>
      </trkpt>
      <trkpt lat="42.82872" lon="0.9615">
        <ele>1643.9916992188</ele>
        <time>2019-05-29T09:40:22Z</time>
      </trkpt>
      <trkpt lat="42.82873" lon="0.9615">
        <ele>1644.953125</ele>
        <time>2019-05-29T09:40:23Z</time>
      </trkpt>
      <trkpt lat="42.82887" lon="0.9615">
        <ele>1643.0302734375</ele>
        <time>2019-05-29T09:40:39Z</time>
      </trkpt>
      <trkpt lat="42.82887" lon="0.9615">
        <ele>1642.0690917969</ele>
        <time>2019-05-29T09:41:00Z</time>
      </trkpt>
      <trkpt lat="42.82888" lon="0.96149">
        <ele>1642.5498046875</ele>
        <time>2019-05-29T09:42:14Z</time>
      </trkpt>
      <trkpt lat="42.82888" lon="0.96149">
        <ele>1643.5109863281</ele>
        <time>2019-05-29T09:42:20Z</time>
      </trkpt>
      <trkpt lat="42.82892" lon="0.96147">
        <ele>1643.0302734375</ele>
        <time>2019-05-29T09:42:41Z</time>
      </trkpt>
      <trkpt lat="42.82902" lon="0.96143">
        <ele>1643.0302734375</ele>
        <time>2019-05-29T09:42:52Z</time>
      </trkpt>
      <trkpt lat="42.8291" lon="0.96135">
        <ele>1642.5498046875</ele>
        <time>2019-05-29T09:43:02Z</time>
      </trkpt>
      <trkpt lat="42.82919" lon="0.96124">
        <ele>1642.5498046875</ele>
        <time>2019-05-29T09:43:18Z</time>
      </trkpt>
      <trkpt lat="42.82937" lon="0.9612">
        <ele>1640.146484375</ele>
        <time>2019-05-29T09:43:35Z</time>
      </trkpt>
      <trkpt lat="42.82948" lon="0.96121">
        <ele>1638.7045898438</ele>
        <time>2019-05-29T09:43:46Z</time>
      </trkpt>
      <trkpt lat="42.82957" lon="0.96117">
        <ele>1637.7431640625</ele>
        <time>2019-05-29T09:44:04Z</time>
      </trkpt>
      <trkpt lat="42.82964" lon="0.96114">
        <ele>1636.7817382812</ele>
        <time>2019-05-29T09:44:34Z</time>
      </trkpt>
      <trkpt lat="42.82969" lon="0.96112">
        <ele>1636.3012695312</ele>
        <time>2019-05-29T09:45:39Z</time>
      </trkpt>
      <trkpt lat="42.82972" lon="0.9611">
        <ele>1635.33984375</ele>
        <time>2019-05-29T09:46:10Z</time>
      </trkpt>
      <trkpt lat="42.82997" lon="0.96103">
        <ele>1633.8979492188</ele>
        <time>2019-05-29T09:46:31Z</time>
      </trkpt>
      <trkpt lat="42.83011" lon="0.96099">
        <ele>1631.9753417969</ele>
        <time>2019-05-29T09:46:46Z</time>
      </trkpt>
      <trkpt lat="42.83027" lon="0.96095">
        <ele>1631.0141601562</ele>
        <time>2019-05-29T09:47:06Z</time>
      </trkpt>
      <trkpt lat="42.83043" lon="0.96088">
        <ele>1628.6108398438</ele>
        <time>2019-05-29T09:47:24Z</time>
      </trkpt>
      <trkpt lat="42.83051" lon="0.96083">
        <ele>1628.1301269531</ele>
        <time>2019-05-29T09:47:40Z</time>
      </trkpt>
      <trkpt lat="42.83073" lon="0.96073">
        <ele>1626.6879882812</ele>
        <time>2019-05-29T09:48:02Z</time>
      </trkpt>
      <trkpt lat="42.83091" lon="0.96061">
        <ele>1623.8039550781</ele>
        <time>2019-05-29T09:48:21Z</time>
      </trkpt>
      <trkpt lat="42.83111" lon="0.9605">
        <ele>1622.3620605469</ele>
        <time>2019-05-29T09:48:42Z</time>
      </trkpt>
      <trkpt lat="42.83127" lon="0.96044">
        <ele>1619.9587402344</ele>
        <time>2019-05-29T09:48:59Z</time>
      </trkpt>
      <trkpt lat="42.83145" lon="0.96041">
        <ele>1618.5168457031</ele>
        <time>2019-05-29T09:49:16Z</time>
      </trkpt>
      <trkpt lat="42.83156" lon="0.96045">
        <ele>1617.0749511719</ele>
        <time>2019-05-29T09:49:28Z</time>
      </trkpt>
      <trkpt lat="42.83159" lon="0.96048">
        <ele>1617.0749511719</ele>
        <time>2019-05-29T09:49:45Z</time>
      </trkpt>
      <trkpt lat="42.83162" lon="0.96047">
        <ele>1616.5942382812</ele>
        <time>2019-05-29T09:49:53Z</time>
      </trkpt>
      <trkpt lat="42.83178" lon="0.96053">
        <ele>1614.6716308594</ele>
        <time>2019-05-29T09:50:08Z</time>
      </trkpt>
      <trkpt lat="42.83195" lon="0.96065">
        <ele>1613.2297363281</ele>
        <time>2019-05-29T09:50:26Z</time>
      </trkpt>
      <trkpt lat="42.832" lon="0.96069">
        <ele>1611.7875976562</ele>
        <time>2019-05-29T09:50:33Z</time>
      </trkpt>
      <trkpt lat="42.83204" lon="0.9607">
        <ele>1610.826171875</ele>
        <time>2019-05-29T09:50:37Z</time>
      </trkpt>
      <trkpt lat="42.83214" lon="0.96078">
        <ele>1608.4228515625</ele>
        <time>2019-05-29T09:50:51Z</time>
      </trkpt>
      <trkpt lat="42.83221" lon="0.96084">
        <ele>1608.9035644531</ele>
        <time>2019-05-29T09:51:06Z</time>
      </trkpt>
      <trkpt lat="42.83227" lon="0.96091">
        <ele>1607.9423828125</ele>
        <time>2019-05-29T09:51:27Z</time>
      </trkpt>
      <trkpt lat="42.83229" lon="0.96094">
        <ele>1607.4616699219</ele>
        <time>2019-05-29T09:51:30Z</time>
      </trkpt>
      <trkpt lat="42.83236" lon="0.961">
        <ele>1606.9809570312</ele>
        <time>2019-05-29T09:51:36Z</time>
      </trkpt>
      <trkpt lat="42.83249" lon="0.96114">
        <ele>1605.5390625</ele>
        <time>2019-05-29T09:51:51Z</time>
      </trkpt>
      <trkpt lat="42.83263" lon="0.96124">
        <ele>1603.6164550781</ele>
        <time>2019-05-29T09:52:05Z</time>
      </trkpt>
      <trkpt lat="42.8328" lon="0.96138">
        <ele>1601.6938476562</ele>
        <time>2019-05-29T09:52:19Z</time>
      </trkpt>
      <trkpt lat="42.83299" lon="0.96148">
        <ele>1599.7712402344</ele>
        <time>2019-05-29T09:52:34Z</time>
      </trkpt>
      <trkpt lat="42.83324" lon="0.96149">
        <ele>1597.3679199219</ele>
        <time>2019-05-29T09:52:51Z</time>
      </trkpt>
      <trkpt lat="42.83344" lon="0.96147">
        <ele>1595.92578125</ele>
        <time>2019-05-29T09:53:07Z</time>
      </trkpt>
      <trkpt lat="42.83364" lon="0.96146">
        <ele>1594.4836425781</ele>
        <time>2019-05-29T09:53:23Z</time>
      </trkpt>
      <trkpt lat="42.8339" lon="0.96133">
        <ele>1591.5998535156</ele>
        <time>2019-05-29T09:53:44Z</time>
      </trkpt>
      <trkpt lat="42.83401" lon="0.96125">
        <ele>1590.1579589844</ele>
        <time>2019-05-29T09:53:58Z</time>
      </trkpt>
      <trkpt lat="42.83413" lon="0.96115">
        <ele>1588.2353515625</ele>
        <time>2019-05-29T09:54:14Z</time>
      </trkpt>
      <trkpt lat="42.83425" lon="0.96104">
        <ele>1587.2739257812</ele>
        <time>2019-05-29T09:54:30Z</time>
      </trkpt>
      <trkpt lat="42.83437" lon="0.96089">
        <ele>1585.3513183594</ele>
        <time>2019-05-29T09:54:47Z</time>
      </trkpt>
      <trkpt lat="42.83451" lon="0.96068">
        <ele>1584.8708496094</ele>
        <time>2019-05-29T09:55:05Z</time>
      </trkpt>
      <trkpt lat="42.83452" lon="0.96065">
        <ele>1584.3901367188</ele>
        <time>2019-05-29T09:55:07Z</time>
      </trkpt>
      <trkpt lat="42.8347" lon="0.96053">
        <ele>1586.7932128906</ele>
        <time>2019-05-29T09:55:25Z</time>
      </trkpt>
      <trkpt lat="42.83493" lon="0.96045">
        <ele>1589.1965332031</ele>
        <time>2019-05-29T09:55:45Z</time>
      </trkpt>
      <trkpt lat="42.83501" lon="0.96035">
        <ele>1589.1965332031</ele>
        <time>2019-05-29T09:55:59Z</time>
      </trkpt>
      <trkpt lat="42.83508" lon="0.96028">
        <ele>1589.1965332031</ele>
        <time>2019-05-29T09:56:09Z</time>
      </trkpt>
      <trkpt lat="42.83509" lon="0.96027">
        <ele>1588.7160644531</ele>
        <time>2019-05-29T09:56:10Z</time>
      </trkpt>
      <trkpt lat="42.83515" lon="0.96017">
        <ele>1587.7546386719</ele>
        <time>2019-05-29T09:56:20Z</time>
      </trkpt>
      <trkpt lat="42.83528" lon="0.96018">
        <ele>1586.7932128906</ele>
        <time>2019-05-29T09:56:33Z</time>
      </trkpt>
      <trkpt lat="42.83541" lon="0.9601">
        <ele>1586.3127441406</ele>
        <time>2019-05-29T09:56:47Z</time>
      </trkpt>
      <trkpt lat="42.83546" lon="0.96006">
        <ele>1585.83203125</ele>
        <time>2019-05-29T09:56:53Z</time>
      </trkpt>
      <trkpt lat="42.83565" lon="0.95989">
        <ele>1584.8708496094</ele>
        <time>2019-05-29T09:57:08Z</time>
      </trkpt>
      <trkpt lat="42.83579" lon="0.95975">
        <ele>1583.9094238281</ele>
        <time>2019-05-29T09:57:24Z</time>
      </trkpt>
      <trkpt lat="42.83585" lon="0.95971">
        <ele>1582.9479980469</ele>
        <time>2019-05-29T09:57:39Z</time>
      </trkpt>
      <trkpt lat="42.83594" lon="0.9597">
        <ele>1581.5061035156</ele>
        <time>2019-05-29T09:57:48Z</time>
      </trkpt>
      <trkpt lat="42.83611" lon="0.9597">
        <ele>1581.9868164062</ele>
        <time>2019-05-29T09:58:03Z</time>
      </trkpt>
      <trkpt lat="42.83623" lon="0.95965">
        <ele>1581.9868164062</ele>
        <time>2019-05-29T09:58:16Z</time>
      </trkpt>
      <trkpt lat="42.83629" lon="0.95959">
        <ele>1581.0256347656</ele>
        <time>2019-05-29T09:58:23Z</time>
      </trkpt>
      <trkpt lat="42.83635" lon="0.95951">
        <ele>1580.544921875</ele>
        <time>2019-05-29T09:58:33Z</time>
      </trkpt>
      <trkpt lat="42.83643" lon="0.95927">
        <ele>1579.1025390625</ele>
        <time>2019-05-29T09:58:49Z</time>
      </trkpt>
      <trkpt lat="42.83652" lon="0.95905">
        <ele>1578.1413574219</ele>
        <time>2019-05-29T09:59:06Z</time>
      </trkpt>
      <trkpt lat="42.83651" lon="0.95906">
        <ele>1576.6994628906</ele>
        <time>2019-05-29T09:59:45Z</time>
      </trkpt>
      <trkpt lat="42.83657" lon="0.9589">
        <ele>1576.6994628906</ele>
        <time>2019-05-29T10:00:00Z</time>
      </trkpt>
      <trkpt lat="42.83667" lon="0.95865">
        <ele>1574.7768554688</ele>
        <time>2019-05-29T10:00:18Z</time>
      </trkpt>
      <trkpt lat="42.83676" lon="0.95838">
        <ele>1573.8154296875</ele>
        <time>2019-05-29T10:00:38Z</time>
      </trkpt>
      <trkpt lat="42.83685" lon="0.95819">
        <ele>1572.8542480469</ele>
        <time>2019-05-29T10:00:54Z</time>
      </trkpt>
      <trkpt lat="42.83698" lon="0.9579">
        <ele>1569.9702148438</ele>
        <time>2019-05-29T10:01:15Z</time>
      </trkpt>
      <trkpt lat="42.83711" lon="0.95762">
        <ele>1569.0090332031</ele>
        <time>2019-05-29T10:01:34Z</time>
      </trkpt>
      <trkpt lat="42.83714" lon="0.95754">
        <ele>1567.5668945312</ele>
        <time>2019-05-29T10:01:39Z</time>
      </trkpt>
      <trkpt lat="42.83722" lon="0.95727">
        <ele>1566.6057128906</ele>
        <time>2019-05-29T10:01:57Z</time>
      </trkpt>
      <trkpt lat="42.83728" lon="0.95709">
        <ele>1566.6057128906</ele>
        <time>2019-05-29T10:02:12Z</time>
      </trkpt>
      <trkpt lat="42.8373" lon="0.95706">
        <ele>1565.64453125</ele>
        <time>2019-05-29T10:02:15Z</time>
      </trkpt>
      <trkpt lat="42.83731" lon="0.95701">
        <ele>1565.1638183594</ele>
        <time>2019-05-29T10:02:19Z</time>
      </trkpt>
      <trkpt lat="42.8374" lon="0.95665">
        <ele>1562.2795410156</ele>
        <time>2019-05-29T10:02:42Z</time>
      </trkpt>
      <trkpt lat="42.83745" lon="0.95646">
        <ele>1560.3569335938</ele>
        <time>2019-05-29T10:02:57Z</time>
      </trkpt>
      <trkpt lat="42.83754" lon="0.95619">
        <ele>1558.9150390625</ele>
        <time>2019-05-29T10:03:15Z</time>
      </trkpt>
      <trkpt lat="42.83756" lon="0.95589">
        <ele>1557.4731445312</ele>
        <time>2019-05-29T10:03:32Z</time>
      </trkpt>
      <trkpt lat="42.83757" lon="0.95584">
        <ele>1556.51171875</ele>
        <time>2019-05-29T10:03:40Z</time>
      </trkpt>
      <trkpt lat="42.83759" lon="0.95578">
        <ele>1556.0310058594</ele>
        <time>2019-05-29T10:03:45Z</time>
      </trkpt>
      <trkpt lat="42.83761" lon="0.95559">
        <ele>1553.6279296875</ele>
        <time>2019-05-29T10:03:59Z</time>
      </trkpt>
      <trkpt lat="42.83765" lon="0.95533">
        <ele>1550.2634277344</ele>
        <time>2019-05-29T10:04:17Z</time>
      </trkpt>
      <trkpt lat="42.83766" lon="0.95531">
        <ele>1549.7827148438</ele>
        <time>2019-05-29T10:04:52Z</time>
      </trkpt>
      <trkpt lat="42.83767" lon="0.95524">
        <ele>1547.8598632812</ele>
        <time>2019-05-29T10:05:13Z</time>
      </trkpt>
      <trkpt lat="42.83776" lon="0.95506">
        <ele>1546.8984375</ele>
        <time>2019-05-29T10:05:30Z</time>
      </trkpt>
      <trkpt lat="42.83777" lon="0.95507">
        <ele>1546.41796875</ele>
        <time>2019-05-29T10:05:56Z</time>
      </trkpt>
      <trkpt lat="42.83795" lon="0.95511">
        <ele>1544.0146484375</ele>
        <time>2019-05-29T10:06:13Z</time>
      </trkpt>
      <trkpt lat="42.83812" lon="0.95522">
        <ele>1541.1306152344</ele>
        <time>2019-05-29T10:06:28Z</time>
      </trkpt>
      <trkpt lat="42.83827" lon="0.95531">
        <ele>1539.6887207031</ele>
        <time>2019-05-29T10:06:35Z</time>
      </trkpt>
      <trkpt lat="42.83846" lon="0.95527">
        <ele>1538.7275390625</ele>
        <time>2019-05-29T10:06:47Z</time>
      </trkpt>
      <trkpt lat="42.83855" lon="0.95529">
        <ele>1538.2468261719</ele>
        <time>2019-05-29T10:06:54Z</time>
      </trkpt>
      <trkpt lat="42.83859" lon="0.95531">
        <ele>1537.2854003906</ele>
        <time>2019-05-29T10:06:58Z</time>
      </trkpt>
      <trkpt lat="42.83864" lon="0.95534">
        <ele>1536.8046875</ele>
        <time>2019-05-29T10:07:02Z</time>
      </trkpt>
      <trkpt lat="42.83884" lon="0.9554">
        <ele>1534.8823242188</ele>
        <time>2019-05-29T10:07:17Z</time>
      </trkpt>
      <trkpt lat="42.83887" lon="0.95539">
        <ele>1534.8823242188</ele>
        <time>2019-05-29T10:07:18Z</time>
      </trkpt>
      <trkpt lat="42.83908" lon="0.95529">
        <ele>1533.9208984375</ele>
        <time>2019-05-29T10:07:32Z</time>
      </trkpt>
      <trkpt lat="42.83922" lon="0.95523">
        <ele>1530.5561523438</ele>
        <time>2019-05-29T10:07:48Z</time>
      </trkpt>
      <trkpt lat="42.83923" lon="0.95522">
        <ele>1530.5561523438</ele>
        <time>2019-05-29T10:07:49Z</time>
      </trkpt>
      <trkpt lat="42.83945" lon="0.95507">
        <ele>1529.1140136719</ele>
        <time>2019-05-29T10:08:07Z</time>
      </trkpt>
      <trkpt lat="42.83962" lon="0.95491">
        <ele>1526.2302246094</ele>
        <time>2019-05-29T10:08:22Z</time>
      </trkpt>
      <trkpt lat="42.83968" lon="0.95484">
        <ele>1524.3076171875</ele>
        <time>2019-05-29T10:08:30Z</time>
      </trkpt>
      <trkpt lat="42.83977" lon="0.95476">
        <ele>1523.3464355469</ele>
        <time>2019-05-29T10:08:43Z</time>
      </trkpt>
      <trkpt lat="42.83991" lon="0.9546">
        <ele>1521.4235839844</ele>
        <time>2019-05-29T10:08:57Z</time>
      </trkpt>
      <trkpt lat="42.83995" lon="0.95454">
        <ele>1520.9431152344</ele>
        <time>2019-05-29T10:09:01Z</time>
      </trkpt>
      <trkpt lat="42.83999" lon="0.95448">
        <ele>1519.9816894531</ele>
        <time>2019-05-29T10:09:05Z</time>
      </trkpt>
      <trkpt lat="42.84006" lon="0.95444">
        <ele>1519.9816894531</ele>
        <time>2019-05-29T10:09:13Z</time>
      </trkpt>
      <trkpt lat="42.84012" lon="0.9545">
        <ele>1517.5783691406</ele>
        <time>2019-05-29T10:09:23Z</time>
      </trkpt>
      <trkpt lat="42.84021" lon="0.95469">
        <ele>1515.6557617188</ele>
        <time>2019-05-29T10:09:38Z</time>
      </trkpt>
      <trkpt lat="42.84032" lon="0.95493">
        <ele>1515.6557617188</ele>
        <time>2019-05-29T10:09:54Z</time>
      </trkpt>
      <trkpt lat="42.84037" lon="0.95501">
        <ele>1513.7329101562</ele>
        <time>2019-05-29T10:09:59Z</time>
      </trkpt>
      <trkpt lat="42.84046" lon="0.95509">
        <ele>1514.2136230469</ele>
        <time>2019-05-29T10:10:09Z</time>
      </trkpt>
      <trkpt lat="42.84062" lon="0.95535">
        <ele>1512.7717285156</ele>
        <time>2019-05-29T10:10:27Z</time>
      </trkpt>
      <trkpt lat="42.84067" lon="0.95549">
        <ele>1510.8491210938</ele>
        <time>2019-05-29T10:10:38Z</time>
      </trkpt>
      <trkpt lat="42.84074" lon="0.95562">
        <ele>1510.8491210938</ele>
        <time>2019-05-29T10:10:47Z</time>
      </trkpt>
      <trkpt lat="42.84082" lon="0.95591">
        <ele>1511.3298339844</ele>
        <time>2019-05-29T10:11:01Z</time>
      </trkpt>
      <trkpt lat="42.84089" lon="0.95611">
        <ele>1509.8876953125</ele>
        <time>2019-05-29T10:11:10Z</time>
      </trkpt>
      <trkpt lat="42.84096" lon="0.95621">
        <ele>1508.4458007812</ele>
        <time>2019-05-29T10:11:21Z</time>
      </trkpt>
      <trkpt lat="42.84106" lon="0.95641">
        <ele>1507.00390625</ele>
        <time>2019-05-29T10:11:36Z</time>
      </trkpt>
      <trkpt lat="42.84118" lon="0.95665">
        <ele>1506.5231933594</ele>
        <time>2019-05-29T10:11:51Z</time>
      </trkpt>
      <trkpt lat="42.84129" lon="0.95692">
        <ele>1505.0812988281</ele>
        <time>2019-05-29T10:12:05Z</time>
      </trkpt>
      <trkpt lat="42.84133" lon="0.95708">
        <ele>1505.0812988281</ele>
        <time>2019-05-29T10:12:19Z</time>
      </trkpt>
      <trkpt lat="42.84139" lon="0.95732">
        <ele>1504.6005859375</ele>
        <time>2019-05-29T10:12:34Z</time>
      </trkpt>
      <trkpt lat="42.84148" lon="0.95748">
        <ele>1501.716796875</ele>
        <time>2019-05-29T10:12:48Z</time>
      </trkpt>
      <trkpt lat="42.84158" lon="0.95774">
        <ele>1501.716796875</ele>
        <time>2019-05-29T10:13:02Z</time>
      </trkpt>
      <trkpt lat="42.84171" lon="0.95813">
        <ele>1503.1586914062</ele>
        <time>2019-05-29T10:13:20Z</time>
      </trkpt>
      <trkpt lat="42.84172" lon="0.95818">
        <ele>1504.1201171875</ele>
        <time>2019-05-29T10:13:23Z</time>
      </trkpt>
      <trkpt lat="42.84182" lon="0.95852">
        <ele>1504.6005859375</ele>
        <time>2019-05-29T10:13:44Z</time>
      </trkpt>
      <trkpt lat="42.84196" lon="0.95887">
        <ele>1505.0812988281</ele>
        <time>2019-05-29T10:14:04Z</time>
      </trkpt>
      <trkpt lat="42.8421" lon="0.95922">
        <ele>1504.1201171875</ele>
        <time>2019-05-29T10:14:24Z</time>
      </trkpt>
      <trkpt lat="42.8422" lon="0.95953">
        <ele>1504.6005859375</ele>
        <time>2019-05-29T10:14:41Z</time>
      </trkpt>
      <trkpt lat="42.84238" lon="0.95989">
        <ele>1505.0812988281</ele>
        <time>2019-05-29T10:15:03Z</time>
      </trkpt>
      <trkpt lat="42.84261" lon="0.96013">
        <ele>1502.6779785156</ele>
        <time>2019-05-29T10:15:23Z</time>
      </trkpt>
      <trkpt lat="42.8429" lon="0.96024">
        <ele>1505.5620117188</ele>
        <time>2019-05-29T10:15:45Z</time>
      </trkpt>
      <trkpt lat="42.84307" lon="0.96031">
        <ele>1505.5620117188</ele>
        <time>2019-05-29T10:16:01Z</time>
      </trkpt>
      <trkpt lat="42.84321" lon="0.9604">
        <ele>1504.6005859375</ele>
        <time>2019-05-29T10:16:21Z</time>
      </trkpt>
      <trkpt lat="42.84344" lon="0.9606">
        <ele>1502.6779785156</ele>
        <time>2019-05-29T10:16:40Z</time>
      </trkpt>
      <trkpt lat="42.84353" lon="0.96075">
        <ele>1501.716796875</ele>
        <time>2019-05-29T10:16:54Z</time>
      </trkpt>
      <trkpt lat="42.84365" lon="0.96096">
        <ele>1499.7939453125</ele>
        <time>2019-05-29T10:17:10Z</time>
      </trkpt>
      <trkpt lat="42.84369" lon="0.96109">
        <ele>1500.7553710938</ele>
        <time>2019-05-29T10:17:27Z</time>
      </trkpt>
      <trkpt lat="42.8437" lon="0.96109">
        <ele>1501.716796875</ele>
        <time>2019-05-29T10:17:39Z</time>
      </trkpt>
      <trkpt lat="42.84369" lon="0.96109">
        <ele>1501.716796875</ele>
        <time>2019-05-29T10:18:12Z</time>
      </trkpt>
      <trkpt lat="42.84369" lon="0.96109">
        <ele>1500.2749023438</ele>
        <time>2019-05-29T10:18:33Z</time>
      </trkpt>
      <trkpt lat="42.8437" lon="0.96108">
        <ele>1501.2360839844</ele>
        <time>2019-05-29T10:19:29Z</time>
      </trkpt>
      <trkpt lat="42.8437" lon="0.96108">
        <ele>1501.2360839844</ele>
        <time>2019-05-29T10:20:22Z</time>
      </trkpt>
      <trkpt lat="42.84376" lon="0.96103">
        <ele>1500.7553710938</ele>
        <time>2019-05-29T10:20:37Z</time>
      </trkpt>
      <trkpt lat="42.84391" lon="0.9608">
        <ele>1499.3132324219</ele>
        <time>2019-05-29T10:20:59Z</time>
      </trkpt>
      <trkpt lat="42.84405" lon="0.96063">
        <ele>1496.9099121094</ele>
        <time>2019-05-29T10:21:15Z</time>
      </trkpt>
      <trkpt lat="42.84408" lon="0.96058">
        <ele>1497.390625</ele>
        <time>2019-05-29T10:21:20Z</time>
      </trkpt>
      <trkpt lat="42.84412" lon="0.96057">
        <ele>1496.9099121094</ele>
        <time>2019-05-29T10:21:24Z</time>
      </trkpt>
      <trkpt lat="42.84434" lon="0.96065">
        <ele>1497.8713378906</ele>
        <time>2019-05-29T10:21:43Z</time>
      </trkpt>
      <trkpt lat="42.84452" lon="0.96048">
        <ele>1497.390625</ele>
        <time>2019-05-29T10:21:58Z</time>
      </trkpt>
      <trkpt lat="42.84465" lon="0.96034">
        <ele>1497.390625</ele>
        <time>2019-05-29T10:22:13Z</time>
      </trkpt>
      <trkpt lat="42.84481" lon="0.96025">
        <ele>1497.390625</ele>
        <time>2019-05-29T10:22:29Z</time>
      </trkpt>
      <trkpt lat="42.845" lon="0.96011">
        <ele>1499.7939453125</ele>
        <time>2019-05-29T10:22:45Z</time>
      </trkpt>
      <trkpt lat="42.84522" lon="0.95998">
        <ele>1501.716796875</ele>
        <time>2019-05-29T10:23:05Z</time>
      </trkpt>
      <trkpt lat="42.84535" lon="0.95996">
        <ele>1502.6779785156</ele>
        <time>2019-05-29T10:23:18Z</time>
      </trkpt>
      <trkpt lat="42.84535" lon="0.95995">
        <ele>1503.6394042969</ele>
        <time>2019-05-29T10:23:19Z</time>
      </trkpt>
      <trkpt lat="42.84539" lon="0.95989">
        <ele>1503.1586914062</ele>
        <time>2019-05-29T10:23:24Z</time>
      </trkpt>
      <trkpt lat="42.84541" lon="0.95985">
        <ele>1504.6005859375</ele>
        <time>2019-05-29T10:23:27Z</time>
      </trkpt>
      <trkpt lat="42.84545" lon="0.9598">
        <ele>1505.0812988281</ele>
        <time>2019-05-29T10:23:32Z</time>
      </trkpt>
      <trkpt lat="42.84563" lon="0.9597">
        <ele>1506.5231933594</ele>
        <time>2019-05-29T10:23:48Z</time>
      </trkpt>
      <trkpt lat="42.84579" lon="0.95964">
        <ele>1505.5620117188</ele>
        <time>2019-05-29T10:24:03Z</time>
      </trkpt>
      <trkpt lat="42.84582" lon="0.95963">
        <ele>1506.5231933594</ele>
        <time>2019-05-29T10:24:06Z</time>
      </trkpt>
      <trkpt lat="42.84584" lon="0.95963">
        <ele>1507.9653320312</ele>
        <time>2019-05-29T10:24:08Z</time>
      </trkpt>
      <trkpt lat="42.84599" lon="0.95974">
        <ele>1507.00390625</ele>
        <time>2019-05-29T10:24:23Z</time>
      </trkpt>
      <trkpt lat="42.84617" lon="0.95974">
        <ele>1507.4846191406</ele>
        <time>2019-05-29T10:24:37Z</time>
      </trkpt>
      <trkpt lat="42.8463" lon="0.95966">
        <ele>1506.5231933594</ele>
        <time>2019-05-29T10:24:53Z</time>
      </trkpt>
      <trkpt lat="42.84642" lon="0.95954">
        <ele>1508.4458007812</ele>
        <time>2019-05-29T10:25:06Z</time>
      </trkpt>
      <trkpt lat="42.84652" lon="0.95941">
        <ele>1507.4846191406</ele>
        <time>2019-05-29T10:25:20Z</time>
      </trkpt>
      <trkpt lat="42.84662" lon="0.95941">
        <ele>1506.0424804688</ele>
        <time>2019-05-29T10:25:33Z</time>
      </trkpt>
      <trkpt lat="42.84671" lon="0.95942">
        <ele>1507.00390625</ele>
        <time>2019-05-29T10:25:39Z</time>
      </trkpt>
      <trkpt lat="42.84685" lon="0.95957">
        <ele>1506.0424804688</ele>
        <time>2019-05-29T10:25:54Z</time>
      </trkpt>
      <trkpt lat="42.8469" lon="0.9596">
        <ele>1506.0424804688</ele>
        <time>2019-05-29T10:26:00Z</time>
      </trkpt>
      <trkpt lat="42.84693" lon="0.95958">
        <ele>1503.6394042969</ele>
        <time>2019-05-29T10:26:04Z</time>
      </trkpt>
      <trkpt lat="42.84698" lon="0.95952">
        <ele>1503.6394042969</ele>
        <time>2019-05-29T10:26:09Z</time>
      </trkpt>
      <trkpt lat="42.84706" lon="0.9594">
        <ele>1501.716796875</ele>
        <time>2019-05-29T10:26:17Z</time>
      </trkpt>
      <trkpt lat="42.84726" lon="0.95929">
        <ele>1501.2360839844</ele>
        <time>2019-05-29T10:26:33Z</time>
      </trkpt>
      <trkpt lat="42.84738" lon="0.95913">
        <ele>1498.8325195312</ele>
        <time>2019-05-29T10:26:44Z</time>
      </trkpt>
      <trkpt lat="42.84743" lon="0.95907">
        <ele>1499.3132324219</ele>
        <time>2019-05-29T10:26:49Z</time>
      </trkpt>
      <trkpt lat="42.84762" lon="0.95911">
        <ele>1498.3518066406</ele>
        <time>2019-05-29T10:27:06Z</time>
      </trkpt>
      <trkpt lat="42.84763" lon="0.95911">
        <ele>1498.8325195312</ele>
        <time>2019-05-29T10:27:07Z</time>
      </trkpt>
      <trkpt lat="42.84771" lon="0.95912">
        <ele>1497.390625</ele>
        <time>2019-05-29T10:27:14Z</time>
      </trkpt>
      <trkpt lat="42.84777" lon="0.95912">
        <ele>1495.9487304688</ele>
        <time>2019-05-29T10:27:19Z</time>
      </trkpt>
      <trkpt lat="42.84793" lon="0.95912">
        <ele>1496.9099121094</ele>
        <time>2019-05-29T10:27:31Z</time>
      </trkpt>
      <trkpt lat="42.84806" lon="0.95902">
        <ele>1494.9873046875</ele>
        <time>2019-05-29T10:27:44Z</time>
      </trkpt>
      <trkpt lat="42.84811" lon="0.95896">
        <ele>1494.5065917969</ele>
        <time>2019-05-29T10:27:49Z</time>
      </trkpt>
      <trkpt lat="42.84827" lon="0.95895">
        <ele>1492.5842285156</ele>
        <time>2019-05-29T10:28:02Z</time>
      </trkpt>
      <trkpt lat="42.84832" lon="0.95905">
        <ele>1492.103515625</ele>
        <time>2019-05-29T10:28:15Z</time>
      </trkpt>
      <trkpt lat="42.84835" lon="0.95908">
        <ele>1492.103515625</ele>
        <time>2019-05-29T10:28:19Z</time>
      </trkpt>
      <trkpt lat="42.84842" lon="0.95925">
        <ele>1491.1420898438</ele>
        <time>2019-05-29T10:28:34Z</time>
      </trkpt>
      <trkpt lat="42.84843" lon="0.95926">
        <ele>1491.6228027344</ele>
        <time>2019-05-29T10:28:35Z</time>
      </trkpt>
      <trkpt lat="42.84852" lon="0.95943">
        <ele>1491.1420898438</ele>
        <time>2019-05-29T10:28:49Z</time>
      </trkpt>
      <trkpt lat="42.84859" lon="0.95949">
        <ele>1491.1420898438</ele>
        <time>2019-05-29T10:29:03Z</time>
      </trkpt>
      <trkpt lat="42.84865" lon="0.95953">
        <ele>1490.1809082031</ele>
        <time>2019-05-29T10:29:30Z</time>
      </trkpt>
      <trkpt lat="42.84884" lon="0.9596">
        <ele>1488.2583007812</ele>
        <time>2019-05-29T10:29:50Z</time>
      </trkpt>
      <trkpt lat="42.84908" lon="0.95972">
        <ele>1485.8549804688</ele>
        <time>2019-05-29T10:30:10Z</time>
      </trkpt>
      <trkpt lat="42.84911" lon="0.95973">
        <ele>1485.3742675781</ele>
        <time>2019-05-29T10:30:31Z</time>
      </trkpt>
      <trkpt lat="42.84912" lon="0.95974">
        <ele>1484.4130859375</ele>
        <time>2019-05-29T10:31:00Z</time>
      </trkpt>
      <trkpt lat="42.84913" lon="0.95975">
        <ele>1484.8937988281</ele>
        <time>2019-05-29T10:32:05Z</time>
      </trkpt>
      <trkpt lat="42.84932" lon="0.95991">
        <ele>1481.5288085938</ele>
        <time>2019-05-29T10:32:24Z</time>
      </trkpt>
      <trkpt lat="42.84945" lon="0.96001">
        <ele>1481.0483398438</ele>
        <time>2019-05-29T10:32:40Z</time>
      </trkpt>
      <trkpt lat="42.84967" lon="0.96016">
        <ele>1480.5676269531</ele>
        <time>2019-05-29T10:33:00Z</time>
      </trkpt>
      <trkpt lat="42.84985" lon="0.96015">
        <ele>1480.0869140625</ele>
        <time>2019-05-29T10:33:17Z</time>
      </trkpt>
      <trkpt lat="42.84992" lon="0.96006">
        <ele>1478.1643066406</ele>
        <time>2019-05-29T10:33:26Z</time>
      </trkpt>
      <trkpt lat="42.85003" lon="0.9599">
        <ele>1476.7224121094</ele>
        <time>2019-05-29T10:33:43Z</time>
      </trkpt>
      <trkpt lat="42.85009" lon="0.9598">
        <ele>1475.7609863281</ele>
        <time>2019-05-29T10:34:01Z</time>
      </trkpt>
      <trkpt lat="42.85015" lon="0.95971">
        <ele>1475.7609863281</ele>
        <time>2019-05-29T10:34:15Z</time>
      </trkpt>
      <trkpt lat="42.85024" lon="0.95956">
        <ele>1473.8383789062</ele>
        <time>2019-05-29T10:34:31Z</time>
      </trkpt>
      <trkpt lat="42.85027" lon="0.95951">
        <ele>1472.396484375</ele>
        <time>2019-05-29T10:34:44Z</time>
      </trkpt>
      <trkpt lat="42.8503" lon="0.95944">
        <ele>1471.4350585938</ele>
        <time>2019-05-29T10:34:59Z</time>
      </trkpt>
      <trkpt lat="42.85032" lon="0.95939">
        <ele>1472.8771972656</ele>
        <time>2019-05-29T10:35:05Z</time>
      </trkpt>
      <trkpt lat="42.85034" lon="0.95922">
        <ele>1470.9545898438</ele>
        <time>2019-05-29T10:35:22Z</time>
      </trkpt>
      <trkpt lat="42.85038" lon="0.95907">
        <ele>1469.5126953125</ele>
        <time>2019-05-29T10:35:38Z</time>
      </trkpt>
      <trkpt lat="42.85042" lon="0.95887">
        <ele>1468.5512695312</ele>
        <time>2019-05-29T10:35:53Z</time>
      </trkpt>
      <trkpt lat="42.85046" lon="0.95876">
        <ele>1468.0705566406</ele>
        <time>2019-05-29T10:36:04Z</time>
      </trkpt>
      <trkpt lat="42.85048" lon="0.95868">
        <ele>1467.5895996094</ele>
        <time>2019-05-29T10:36:09Z</time>
      </trkpt>
      <trkpt lat="42.8505" lon="0.95861">
        <ele>1467.1091308594</ele>
        <time>2019-05-29T10:36:13Z</time>
      </trkpt>
      <trkpt lat="42.85058" lon="0.95828">
        <ele>1464.2250976562</ele>
        <time>2019-05-29T10:36:33Z</time>
      </trkpt>
      <trkpt lat="42.85061" lon="0.95806">
        <ele>1460.8605957031</ele>
        <time>2019-05-29T10:36:46Z</time>
      </trkpt>
      <trkpt lat="42.85069" lon="0.95778">
        <ele>1457.49609375</ele>
        <time>2019-05-29T10:37:04Z</time>
      </trkpt>
      <trkpt lat="42.85075" lon="0.95751">
        <ele>1455.0927734375</ele>
        <time>2019-05-29T10:37:22Z</time>
      </trkpt>
      <trkpt lat="42.85079" lon="0.95731">
        <ele>1452.689453125</ele>
        <time>2019-05-29T10:38:21Z</time>
      </trkpt>
      <trkpt lat="42.85085" lon="0.9571">
        <ele>1449.3247070312</ele>
        <time>2019-05-29T10:38:36Z</time>
      </trkpt>
      <trkpt lat="42.85086" lon="0.95704">
        <ele>1447.8828125</ele>
        <time>2019-05-29T10:38:41Z</time>
      </trkpt>
      <trkpt lat="42.85094" lon="0.9568">
        <ele>1444.9987792969</ele>
        <time>2019-05-29T10:38:56Z</time>
      </trkpt>
      <trkpt lat="42.85098" lon="0.95654">
        <ele>1443.076171875</ele>
        <time>2019-05-29T10:39:11Z</time>
      </trkpt>
      <trkpt lat="42.85099" lon="0.95648">
        <ele>1441.6342773438</ele>
        <time>2019-05-29T10:39:15Z</time>
      </trkpt>
      <trkpt lat="42.85102" lon="0.95619">
        <ele>1437.7890625</ele>
        <time>2019-05-29T10:39:32Z</time>
      </trkpt>
      <trkpt lat="42.85104" lon="0.95601">
        <ele>1435.3854980469</ele>
        <time>2019-05-29T10:39:42Z</time>
      </trkpt>
      <trkpt lat="42.85109" lon="0.95586">
        <ele>1432.9821777344</ele>
        <time>2019-05-29T10:39:51Z</time>
      </trkpt>
      <trkpt lat="42.85114" lon="0.95556">
        <ele>1429.1369628906</ele>
        <time>2019-05-29T10:40:09Z</time>
      </trkpt>
      <trkpt lat="42.85117" lon="0.95535">
        <ele>1426.7338867188</ele>
        <time>2019-05-29T10:40:23Z</time>
      </trkpt>
      <trkpt lat="42.8512" lon="0.95522">
        <ele>1423.3693847656</ele>
        <time>2019-05-29T10:40:34Z</time>
      </trkpt>
      <trkpt lat="42.85124" lon="0.95511">
        <ele>1422.4079589844</ele>
        <time>2019-05-29T10:40:40Z</time>
      </trkpt>
      <trkpt lat="42.85124" lon="0.95493">
        <ele>1419.5239257812</ele>
        <time>2019-05-29T10:40:51Z</time>
      </trkpt>
      <trkpt lat="42.85128" lon="0.95465">
        <ele>1416.6398925781</ele>
        <time>2019-05-29T10:41:05Z</time>
      </trkpt>
      <trkpt lat="42.85136" lon="0.95444">
        <ele>1413.755859375</ele>
        <time>2019-05-29T10:41:17Z</time>
      </trkpt>
      <trkpt lat="42.85139" lon="0.9543">
        <ele>1412.3139648438</ele>
        <time>2019-05-29T10:41:26Z</time>
      </trkpt>
      <trkpt lat="42.85143" lon="0.9541">
        <ele>1411.8334960938</ele>
        <time>2019-05-29T10:41:44Z</time>
      </trkpt>
      <trkpt lat="42.85147" lon="0.95392">
        <ele>1411.8334960938</ele>
        <time>2019-05-29T10:41:59Z</time>
      </trkpt>
      <trkpt lat="42.85151" lon="0.95378">
        <ele>1412.3139648438</ele>
        <time>2019-05-29T10:42:12Z</time>
      </trkpt>
      <trkpt lat="42.85154" lon="0.95369">
        <ele>1411.8334960938</ele>
        <time>2019-05-29T10:42:17Z</time>
      </trkpt>
      <trkpt lat="42.85163" lon="0.95341">
        <ele>1410.8720703125</ele>
        <time>2019-05-29T10:42:35Z</time>
      </trkpt>
      <trkpt lat="42.85169" lon="0.95327">
        <ele>1411.3527832031</ele>
        <time>2019-05-29T10:43:03Z</time>
      </trkpt>
      <trkpt lat="42.85183" lon="0.95302">
        <ele>1411.3527832031</ele>
        <time>2019-05-29T10:43:20Z</time>
      </trkpt>
      <trkpt lat="42.85189" lon="0.95292">
        <ele>1412.3139648438</ele>
        <time>2019-05-29T10:43:27Z</time>
      </trkpt>
      <trkpt lat="42.85206" lon="0.95265">
        <ele>1410.8720703125</ele>
        <time>2019-05-29T10:43:45Z</time>
      </trkpt>
      <trkpt lat="42.85217" lon="0.9525">
        <ele>1410.8720703125</ele>
        <time>2019-05-29T10:43:57Z</time>
      </trkpt>
      <trkpt lat="42.85232" lon="0.95224">
        <ele>1411.3527832031</ele>
        <time>2019-05-29T10:44:13Z</time>
      </trkpt>
      <trkpt lat="42.85249" lon="0.95196">
        <ele>1412.3139648438</ele>
        <time>2019-05-29T10:44:32Z</time>
      </trkpt>
      <trkpt lat="42.85263" lon="0.95171">
        <ele>1412.7946777344</ele>
        <time>2019-05-29T10:44:50Z</time>
      </trkpt>
      <trkpt lat="42.8528" lon="0.95142">
        <ele>1412.7946777344</ele>
        <time>2019-05-29T10:45:11Z</time>
      </trkpt>
      <trkpt lat="42.85292" lon="0.95122">
        <ele>1412.7946777344</ele>
        <time>2019-05-29T10:45:27Z</time>
      </trkpt>
      <trkpt lat="42.85301" lon="0.95104">
        <ele>1412.3139648438</ele>
        <time>2019-05-29T10:45:44Z</time>
      </trkpt>
      <trkpt lat="42.85311" lon="0.95089">
        <ele>1412.3139648438</ele>
        <time>2019-05-29T10:45:52Z</time>
      </trkpt>
      <trkpt lat="42.85315" lon="0.95084">
        <ele>1412.7946777344</ele>
        <time>2019-05-29T10:45:56Z</time>
      </trkpt>
      <trkpt lat="42.85327" lon="0.95067">
        <ele>1413.275390625</ele>
        <time>2019-05-29T10:46:11Z</time>
      </trkpt>
      <trkpt lat="42.85329" lon="0.95059">
        <ele>1413.755859375</ele>
        <time>2019-05-29T10:46:24Z</time>
      </trkpt>
      <trkpt lat="42.85337" lon="0.95044">
        <ele>1412.7946777344</ele>
        <time>2019-05-29T10:46:38Z</time>
      </trkpt>
      <trkpt lat="42.8534" lon="0.95038">
        <ele>1412.3139648438</ele>
        <time>2019-05-29T10:46:51Z</time>
      </trkpt>
      <trkpt lat="42.85345" lon="0.95031">
        <ele>1412.7946777344</ele>
        <time>2019-05-29T10:47:06Z</time>
      </trkpt>
      <trkpt lat="42.85349" lon="0.95021">
        <ele>1412.7946777344</ele>
        <time>2019-05-29T10:47:24Z</time>
      </trkpt>
      <trkpt lat="42.85352" lon="0.95017">
        <ele>1412.7946777344</ele>
        <time>2019-05-29T10:47:27Z</time>
      </trkpt>
      <trkpt lat="42.85354" lon="0.95013">
        <ele>1412.7946777344</ele>
        <time>2019-05-29T10:47:29Z</time>
      </trkpt>
      <trkpt lat="42.85357" lon="0.95006">
        <ele>1413.755859375</ele>
        <time>2019-05-29T10:47:33Z</time>
      </trkpt>
      <trkpt lat="42.85358" lon="0.95003">
        <ele>1413.275390625</ele>
        <time>2019-05-29T10:47:35Z</time>
      </trkpt>
      <trkpt lat="42.8536" lon="0.94997">
        <ele>1412.7946777344</ele>
        <time>2019-05-29T10:47:38Z</time>
      </trkpt>
      <trkpt lat="42.85375" lon="0.94975">
        <ele>1413.755859375</ele>
        <time>2019-05-29T10:47:52Z</time>
      </trkpt>
      <trkpt lat="42.85384" lon="0.94968">
        <ele>1415.6787109375</ele>
        <time>2019-05-29T10:48:05Z</time>
      </trkpt>
      <trkpt lat="42.85396" lon="0.94969">
        <ele>1413.275390625</ele>
        <time>2019-05-29T10:48:22Z</time>
      </trkpt>
      <trkpt lat="42.85398" lon="0.94969">
        <ele>1412.7946777344</ele>
        <time>2019-05-29T10:48:24Z</time>
      </trkpt>
      <trkpt lat="42.85418" lon="0.94967">
        <ele>1412.3139648438</ele>
        <time>2019-05-29T10:48:41Z</time>
      </trkpt>
      <trkpt lat="42.85432" lon="0.94964">
        <ele>1413.275390625</ele>
        <time>2019-05-29T10:48:55Z</time>
      </trkpt>
      <trkpt lat="42.85441" lon="0.94959">
        <ele>1412.7946777344</ele>
        <time>2019-05-29T10:49:05Z</time>
      </trkpt>
      <trkpt lat="42.85462" lon="0.94939">
        <ele>1411.3527832031</ele>
        <time>2019-05-29T10:49:20Z</time>
      </trkpt>
      <trkpt lat="42.85474" lon="0.94917">
        <ele>1409.4301757812</ele>
        <time>2019-05-29T10:49:33Z</time>
      </trkpt>
      <trkpt lat="42.85485" lon="0.94896">
        <ele>1409.9106445312</ele>
        <time>2019-05-29T10:49:47Z</time>
      </trkpt>
      <trkpt lat="42.85501" lon="0.94887">
        <ele>1408.9494628906</ele>
        <time>2019-05-29T10:50:05Z</time>
      </trkpt>
      <trkpt lat="42.8551" lon="0.94882">
        <ele>1407.98828125</ele>
        <time>2019-05-29T10:50:10Z</time>
      </trkpt>
      <trkpt lat="42.85538" lon="0.94887">
        <ele>1409.4301757812</ele>
        <time>2019-05-29T10:50:25Z</time>
      </trkpt>
      <trkpt lat="42.85544" lon="0.949">
        <ele>1407.5075683594</ele>
        <time>2019-05-29T10:50:44Z</time>
      </trkpt>
      <trkpt lat="42.85547" lon="0.94904">
        <ele>1405.5849609375</ele>
        <time>2019-05-29T10:50:54Z</time>
      </trkpt>
      <trkpt lat="42.85565" lon="0.94927">
        <ele>1405.1042480469</ele>
        <time>2019-05-29T10:51:13Z</time>
      </trkpt>
      <trkpt lat="42.85582" lon="0.94933">
        <ele>1404.6235351562</ele>
        <time>2019-05-29T10:51:25Z</time>
      </trkpt>
      <trkpt lat="42.85592" lon="0.94941">
        <ele>1404.6235351562</ele>
        <time>2019-05-29T10:51:35Z</time>
      </trkpt>
      <trkpt lat="42.85605" lon="0.94965">
        <ele>1406.0654296875</ele>
        <time>2019-05-29T10:51:51Z</time>
      </trkpt>
      <trkpt lat="42.85611" lon="0.94977">
        <ele>1406.0654296875</ele>
        <time>2019-05-29T10:52:05Z</time>
      </trkpt>
      <trkpt lat="42.85613" lon="0.94983">
        <ele>1406.5461425781</ele>
        <time>2019-05-29T10:52:25Z</time>
      </trkpt>
      <trkpt lat="42.8562" lon="0.94987">
        <ele>1406.5461425781</ele>
        <time>2019-05-29T10:52:40Z</time>
      </trkpt>
      <trkpt lat="42.85621" lon="0.94993">
        <ele>1407.5075683594</ele>
        <time>2019-05-29T10:53:04Z</time>
      </trkpt>
      <trkpt lat="42.85629" lon="0.95003">
        <ele>1406.5461425781</ele>
        <time>2019-05-29T10:53:21Z</time>
      </trkpt>
      <trkpt lat="42.85636" lon="0.95018">
        <ele>1408.9494628906</ele>
        <time>2019-05-29T10:53:35Z</time>
      </trkpt>
      <trkpt lat="42.85645" lon="0.95028">
        <ele>1409.4301757812</ele>
        <time>2019-05-29T10:53:51Z</time>
      </trkpt>
      <trkpt lat="42.85659" lon="0.95042">
        <ele>1411.3527832031</ele>
        <time>2019-05-29T10:54:04Z</time>
      </trkpt>
      <trkpt lat="42.85673" lon="0.95055">
        <ele>1412.7946777344</ele>
        <time>2019-05-29T10:54:19Z</time>
      </trkpt>
      <trkpt lat="42.85688" lon="0.95065">
        <ele>1416.1591796875</ele>
        <time>2019-05-29T10:54:35Z</time>
      </trkpt>
      <trkpt lat="42.85704" lon="0.95075">
        <ele>1417.6010742188</ele>
        <time>2019-05-29T10:54:51Z</time>
      </trkpt>
      <trkpt lat="42.85717" lon="0.95082">
        <ele>1419.5239257812</ele>
        <time>2019-05-29T10:55:04Z</time>
      </trkpt>
      <trkpt lat="42.85727" lon="0.95089">
        <ele>1421.9272460938</ele>
        <time>2019-05-29T10:55:21Z</time>
      </trkpt>
      <trkpt lat="42.85744" lon="0.95081">
        <ele>1423.3693847656</ele>
        <time>2019-05-29T10:55:35Z</time>
      </trkpt>
      <trkpt lat="42.85764" lon="0.95076">
        <ele>1424.3305664062</ele>
        <time>2019-05-29T10:55:48Z</time>
      </trkpt>
      <trkpt lat="42.85783" lon="0.95085">
        <ele>1425.2917480469</ele>
        <time>2019-05-29T10:56:01Z</time>
      </trkpt>
      <trkpt lat="42.85797" lon="0.95092">
        <ele>1425.7724609375</ele>
        <time>2019-05-29T10:56:13Z</time>
      </trkpt>
      <trkpt lat="42.85817" lon="0.95102">
        <ele>1426.2531738281</ele>
        <time>2019-05-29T10:56:28Z</time>
      </trkpt>
      <trkpt lat="42.85841" lon="0.9511">
        <ele>1427.2145996094</ele>
        <time>2019-05-29T10:56:44Z</time>
      </trkpt>
      <trkpt lat="42.85854" lon="0.9512">
        <ele>1428.6564941406</ele>
        <time>2019-05-29T10:56:53Z</time>
      </trkpt>
      <trkpt lat="42.85869" lon="0.95143">
        <ele>1427.6950683594</ele>
        <time>2019-05-29T10:57:07Z</time>
      </trkpt>
      <trkpt lat="42.85869" lon="0.95145">
        <ele>1427.6950683594</ele>
        <time>2019-05-29T10:57:09Z</time>
      </trkpt>
      <trkpt lat="42.85865" lon="0.95153">
        <ele>1428.17578125</ele>
        <time>2019-05-29T10:57:16Z</time>
      </trkpt>
      <trkpt lat="42.85862" lon="0.95163">
        <ele>1427.2145996094</ele>
        <time>2019-05-29T10:57:21Z</time>
      </trkpt>
      <trkpt lat="42.85854" lon="0.95191">
        <ele>1426.2531738281</ele>
        <time>2019-05-29T10:57:34Z</time>
      </trkpt>
      <trkpt lat="42.85854" lon="0.95194">
        <ele>1425.7724609375</ele>
        <time>2019-05-29T10:57:35Z</time>
      </trkpt>
      <trkpt lat="42.85853" lon="0.952">
        <ele>1424.8112792969</ele>
        <time>2019-05-29T10:57:38Z</time>
      </trkpt>
      <trkpt lat="42.85855" lon="0.95211">
        <ele>1423.8498535156</ele>
        <time>2019-05-29T10:57:43Z</time>
      </trkpt>
      <trkpt lat="42.85855" lon="0.95239">
        <ele>1421.4465332031</ele>
        <time>2019-05-29T10:57:56Z</time>
      </trkpt>
      <trkpt lat="42.85856" lon="0.95252">
        <ele>1420.4853515625</ele>
        <time>2019-05-29T10:58:03Z</time>
      </trkpt>
      <trkpt lat="42.85856" lon="0.9526">
        <ele>1419.5239257812</ele>
        <time>2019-05-29T10:58:08Z</time>
      </trkpt>
      <trkpt lat="42.85856" lon="0.95264">
        <ele>1419.0432128906</ele>
        <time>2019-05-29T10:58:10Z</time>
      </trkpt>
      <trkpt lat="42.85856" lon="0.95273">
        <ele>1417.6010742188</ele>
        <time>2019-05-29T10:58:15Z</time>
      </trkpt>
      <trkpt lat="42.85859" lon="0.95297">
        <ele>1416.6398925781</ele>
        <time>2019-05-29T10:58:29Z</time>
      </trkpt>
      <trkpt lat="42.85854" lon="0.95307">
        <ele>1415.1979980469</ele>
        <time>2019-05-29T10:58:37Z</time>
      </trkpt>
      <trkpt lat="42.8585" lon="0.95331">
        <ele>1413.755859375</ele>
        <time>2019-05-29T10:58:51Z</time>
      </trkpt>
      <trkpt lat="42.85846" lon="0.95342">
        <ele>1413.755859375</ele>
        <time>2019-05-29T10:58:57Z</time>
      </trkpt>
      <trkpt lat="42.85839" lon="0.95364">
        <ele>1413.755859375</ele>
        <time>2019-05-29T10:59:09Z</time>
      </trkpt>
      <trkpt lat="42.85831" lon="0.95386">
        <ele>1412.7946777344</ele>
        <time>2019-05-29T10:59:21Z</time>
      </trkpt>
      <trkpt lat="42.85827" lon="0.95408">
        <ele>1409.9106445312</ele>
        <time>2019-05-29T10:59:35Z</time>
      </trkpt>
      <trkpt lat="42.85827" lon="0.95411">
        <ele>1409.4301757812</ele>
        <time>2019-05-29T10:59:37Z</time>
      </trkpt>
      <trkpt lat="42.85822" lon="0.9545">
        <ele>1409.4301757812</ele>
        <time>2019-05-29T10:59:57Z</time>
      </trkpt>
      <trkpt lat="42.85808" lon="0.95467">
        <ele>1408.46875</ele>
        <time>2019-05-29T11:00:11Z</time>
      </trkpt>
      <trkpt lat="42.85804" lon="0.95471">
        <ele>1407.98828125</ele>
        <time>2019-05-29T11:00:14Z</time>
      </trkpt>
      <trkpt lat="42.85797" lon="0.95481">
        <ele>1407.0268554688</ele>
        <time>2019-05-29T11:00:20Z</time>
      </trkpt>
      <trkpt lat="42.85795" lon="0.95487">
        <ele>1406.5461425781</ele>
        <time>2019-05-29T11:00:23Z</time>
      </trkpt>
      <trkpt lat="42.85783" lon="0.95512">
        <ele>1405.1042480469</ele>
        <time>2019-05-29T11:00:38Z</time>
      </trkpt>
      <trkpt lat="42.85773" lon="0.95533">
        <ele>1403.1813964844</ele>
        <time>2019-05-29T11:00:52Z</time>
      </trkpt>
      <trkpt lat="42.85769" lon="0.95554">
        <ele>1400.7780761719</ele>
        <time>2019-05-29T11:01:04Z</time>
      </trkpt>
      <trkpt lat="42.85767" lon="0.95577">
        <ele>1397.8942871094</ele>
        <time>2019-05-29T11:01:17Z</time>
      </trkpt>
      <trkpt lat="42.85767" lon="0.95582">
        <ele>1397.8942871094</ele>
        <time>2019-05-29T11:01:19Z</time>
      </trkpt>
      <trkpt lat="42.85767" lon="0.95587">
        <ele>1397.8942871094</ele>
        <time>2019-05-29T11:01:21Z</time>
      </trkpt>
      <trkpt lat="42.85765" lon="0.95606">
        <ele>1396.9328613281</ele>
        <time>2019-05-29T11:01:31Z</time>
      </trkpt>
      <trkpt lat="42.85736" lon="0.95632">
        <ele>1396.4523925781</ele>
        <time>2019-05-29T11:01:46Z</time>
      </trkpt>
      <trkpt lat="42.85721" lon="0.95634">
        <ele>1396.4523925781</ele>
        <time>2019-05-29T11:01:58Z</time>
      </trkpt>
      <trkpt lat="42.85709" lon="0.95638">
        <ele>1395.4909667969</ele>
        <time>2019-05-29T11:02:18Z</time>
      </trkpt>
      <trkpt lat="42.85711" lon="0.9564">
        <ele>1394.0490722656</ele>
        <time>2019-05-29T11:02:22Z</time>
      </trkpt>
      <trkpt lat="42.85724" lon="0.95648">
        <ele>1392.6071777344</ele>
        <time>2019-05-29T11:02:36Z</time>
      </trkpt>
      <trkpt lat="42.85737" lon="0.9566">
        <ele>1389.2424316406</ele>
        <time>2019-05-29T11:02:50Z</time>
      </trkpt>
      <trkpt lat="42.8575" lon="0.95671">
        <ele>1386.3583984375</ele>
        <time>2019-05-29T11:03:03Z</time>
      </trkpt>
      <trkpt lat="42.8577" lon="0.95683">
        <ele>1383.4743652344</ele>
        <time>2019-05-29T11:03:20Z</time>
      </trkpt>
      <trkpt lat="42.85783" lon="0.95694">
        <ele>1382.0324707031</ele>
        <time>2019-05-29T11:03:30Z</time>
      </trkpt>
      <trkpt lat="42.85793" lon="0.95702">
        <ele>1381.0712890625</ele>
        <time>2019-05-29T11:03:41Z</time>
      </trkpt>
      <trkpt lat="42.85795" lon="0.95707">
        <ele>1379.1484375</ele>
        <time>2019-05-29T11:03:46Z</time>
      </trkpt>
      <trkpt lat="42.85806" lon="0.95718">
        <ele>1375.7839355469</ele>
        <time>2019-05-29T11:03:58Z</time>
      </trkpt>
      <trkpt lat="42.85828" lon="0.95729">
        <ele>1372.9001464844</ele>
        <time>2019-05-29T11:04:12Z</time>
      </trkpt>
      <trkpt lat="42.85839" lon="0.95734">
        <ele>1369.0546875</ele>
        <time>2019-05-29T11:04:25Z</time>
      </trkpt>
      <trkpt lat="42.85851" lon="0.95746">
        <ele>1366.6513671875</ele>
        <time>2019-05-29T11:04:40Z</time>
      </trkpt>
      <trkpt lat="42.85855" lon="0.95752">
        <ele>1364.248046875</ele>
        <time>2019-05-29T11:04:55Z</time>
      </trkpt>
      <trkpt lat="42.85865" lon="0.95756">
        <ele>1363.2868652344</ele>
        <time>2019-05-29T11:05:10Z</time>
      </trkpt>
      <trkpt lat="42.85875" lon="0.95765">
        <ele>1359.9221191406</ele>
        <time>2019-05-29T11:05:23Z</time>
      </trkpt>
      <trkpt lat="42.85886" lon="0.95768">
        <ele>1356.5576171875</ele>
        <time>2019-05-29T11:05:33Z</time>
      </trkpt>
      <trkpt lat="42.85897" lon="0.9578">
        <ele>1353.6735839844</ele>
        <time>2019-05-29T11:05:47Z</time>
      </trkpt>
      <trkpt lat="42.85899" lon="0.95782">
        <ele>1352.7121582031</ele>
        <time>2019-05-29T11:05:49Z</time>
      </trkpt>
      <trkpt lat="42.85916" lon="0.95786">
        <ele>1349.8283691406</ele>
        <time>2019-05-29T11:06:02Z</time>
      </trkpt>
      <trkpt lat="42.85924" lon="0.95798">
        <ele>1349.8283691406</ele>
        <time>2019-05-29T11:06:18Z</time>
      </trkpt>
      <trkpt lat="42.85928" lon="0.95802">
        <ele>1349.8283691406</ele>
        <time>2019-05-29T11:06:34Z</time>
      </trkpt>
      <trkpt lat="42.85945" lon="0.95815">
        <ele>1348.8669433594</ele>
        <time>2019-05-29T11:07:40Z</time>
      </trkpt>
      <trkpt lat="42.85954" lon="0.95819">
        <ele>1348.8669433594</ele>
        <time>2019-05-29T11:07:49Z</time>
      </trkpt>
      <trkpt lat="42.85959" lon="0.95821">
        <ele>1348.3862304688</ele>
        <time>2019-05-29T11:07:53Z</time>
      </trkpt>
      <trkpt lat="42.85979" lon="0.95838">
        <ele>1347.9057617188</ele>
        <time>2019-05-29T11:08:07Z</time>
      </trkpt>
      <trkpt lat="42.85991" lon="0.95848">
        <ele>1347.9057617188</ele>
        <time>2019-05-29T11:08:18Z</time>
      </trkpt>
      <trkpt lat="42.86001" lon="0.95854">
        <ele>1347.9057617188</ele>
        <time>2019-05-29T11:08:28Z</time>
      </trkpt>
      <trkpt lat="42.86006" lon="0.95853">
        <ele>1346.9443359375</ele>
        <time>2019-05-29T11:08:33Z</time>
      </trkpt>
      <trkpt lat="42.86031" lon="0.9586">
        <ele>1345.5024414062</ele>
        <time>2019-05-29T11:08:49Z</time>
      </trkpt>
      <trkpt lat="42.86048" lon="0.95871">
        <ele>1345.9831542969</ele>
        <time>2019-05-29T11:09:03Z</time>
      </trkpt>
      <trkpt lat="42.86062" lon="0.95884">
        <ele>1346.9443359375</ele>
        <time>2019-05-29T11:09:16Z</time>
      </trkpt>
      <trkpt lat="42.86088" lon="0.95892">
        <ele>1347.4250488281</ele>
        <time>2019-05-29T11:09:35Z</time>
      </trkpt>
      <trkpt lat="42.86096" lon="0.95895">
        <ele>1347.4250488281</ele>
        <time>2019-05-29T11:09:42Z</time>
      </trkpt>
      <trkpt lat="42.86124" lon="0.95897">
        <ele>1348.8669433594</ele>
        <time>2019-05-29T11:09:58Z</time>
      </trkpt>
      <trkpt lat="42.86127" lon="0.95897">
        <ele>1349.8283691406</ele>
        <time>2019-05-29T11:10:00Z</time>
      </trkpt>
      <trkpt lat="42.86139" lon="0.95902">
        <ele>1350.7895507812</ele>
        <time>2019-05-29T11:10:08Z</time>
      </trkpt>
      <trkpt lat="42.86152" lon="0.95905">
        <ele>1350.3090820312</ele>
        <time>2019-05-29T11:10:17Z</time>
      </trkpt>
      <trkpt lat="42.8616" lon="0.95908">
        <ele>1351.2702636719</ele>
        <time>2019-05-29T11:10:22Z</time>
      </trkpt>
      <trkpt lat="42.86165" lon="0.95909">
        <ele>1351.2702636719</ele>
        <time>2019-05-29T11:10:24Z</time>
      </trkpt>
      <trkpt lat="42.86173" lon="0.95913">
        <ele>1350.7895507812</ele>
        <time>2019-05-29T11:10:27Z</time>
      </trkpt>
      <trkpt lat="42.86192" lon="0.95932">
        <ele>1347.4250488281</ele>
        <time>2019-05-29T11:10:41Z</time>
      </trkpt>
      <trkpt lat="42.86206" lon="0.95945">
        <ele>1344.541015625</ele>
        <time>2019-05-29T11:10:53Z</time>
      </trkpt>
      <trkpt lat="42.86213" lon="0.95953">
        <ele>1342.1379394531</ele>
        <time>2019-05-29T11:11:04Z</time>
      </trkpt>
      <trkpt lat="42.86225" lon="0.95963">
        <ele>1338.2924804688</ele>
        <time>2019-05-29T11:11:17Z</time>
      </trkpt>
      <trkpt lat="42.8623" lon="0.95969">
        <ele>1336.3698730469</ele>
        <time>2019-05-29T11:11:26Z</time>
      </trkpt>
      <trkpt lat="42.86238" lon="0.95972">
        <ele>1333.0051269531</ele>
        <time>2019-05-29T11:11:36Z</time>
      </trkpt>
      <trkpt lat="42.86248" lon="0.95975">
        <ele>1329.640625</ele>
        <time>2019-05-29T11:11:45Z</time>
      </trkpt>
      <trkpt lat="42.86256" lon="0.95977">
        <ele>1327.2375488281</ele>
        <time>2019-05-29T11:11:53Z</time>
      </trkpt>
      <trkpt lat="42.86264" lon="0.95981">
        <ele>1324.353515625</ele>
        <time>2019-05-29T11:12:03Z</time>
      </trkpt>
      <trkpt lat="42.86266" lon="0.95982">
        <ele>1323.3920898438</ele>
        <time>2019-05-29T11:12:05Z</time>
      </trkpt>
      <trkpt lat="42.86279" lon="0.95985">
        <ele>1320.02734375</ele>
        <time>2019-05-29T11:12:15Z</time>
      </trkpt>
      <trkpt lat="42.8628" lon="0.95986">
        <ele>1320.02734375</ele>
        <time>2019-05-29T11:12:16Z</time>
      </trkpt>
      <trkpt lat="42.86285" lon="0.95992">
        <ele>1315.7016601562</ele>
        <time>2019-05-29T11:12:24Z</time>
      </trkpt>
      <trkpt lat="42.86285" lon="0.95992">
        <ele>1315.7016601562</ele>
        <time>2019-05-29T11:12:25Z</time>
      </trkpt>
      <trkpt lat="42.8629" lon="0.95994">
        <ele>1312.3369140625</ele>
        <time>2019-05-29T11:12:31Z</time>
      </trkpt>
      <trkpt lat="42.86307" lon="0.9599">
        <ele>1308.9724121094</ele>
        <time>2019-05-29T11:12:41Z</time>
      </trkpt>
      <trkpt lat="42.86317" lon="0.95989">
        <ele>1305.6076660156</ele>
        <time>2019-05-29T11:12:49Z</time>
      </trkpt>
      <trkpt lat="42.86318" lon="0.9599">
        <ele>1305.126953125</ele>
        <time>2019-05-29T11:12:50Z</time>
      </trkpt>
      <trkpt lat="42.86328" lon="0.95988">
        <ele>1302.2429199219</ele>
        <time>2019-05-29T11:12:56Z</time>
      </trkpt>
      <trkpt lat="42.86341" lon="0.95985">
        <ele>1298.8784179688</ele>
        <time>2019-05-29T11:13:05Z</time>
      </trkpt>
      <trkpt lat="42.86352" lon="0.95982">
        <ele>1295.5139160156</ele>
        <time>2019-05-29T11:13:13Z</time>
      </trkpt>
      <trkpt lat="42.86363" lon="0.95979">
        <ele>1292.6301269531</ele>
        <time>2019-05-29T11:13:20Z</time>
      </trkpt>
      <trkpt lat="42.86405" lon="0.9597">
        <ele>1289.7458496094</ele>
        <time>2019-05-29T11:13:34Z</time>
      </trkpt>
      <trkpt lat="42.86409" lon="0.95973">
        <ele>1289.7458496094</ele>
        <time>2019-05-29T11:13:36Z</time>
      </trkpt>
      <trkpt lat="42.86421" lon="0.95981">
        <ele>1286.8618164062</ele>
        <time>2019-05-29T11:13:42Z</time>
      </trkpt>
      <trkpt lat="42.8643" lon="0.95997">
        <ele>1283.9780273438</ele>
        <time>2019-05-29T11:13:55Z</time>
      </trkpt>
      <trkpt lat="42.86438" lon="0.96007">
        <ele>1280.6135253906</ele>
        <time>2019-05-29T11:14:07Z</time>
      </trkpt>
      <trkpt lat="42.8644" lon="0.96009">
        <ele>1280.6135253906</ele>
        <time>2019-05-29T11:14:09Z</time>
      </trkpt>
      <trkpt lat="42.86449" lon="0.96027">
        <ele>1276.2875976562</ele>
        <time>2019-05-29T11:14:24Z</time>
      </trkpt>
      <trkpt lat="42.8645" lon="0.96028">
        <ele>1276.2875976562</ele>
        <time>2019-05-29T11:14:25Z</time>
      </trkpt>
      <trkpt lat="42.8646" lon="0.96039">
        <ele>1272.9228515625</ele>
        <time>2019-05-29T11:14:37Z</time>
      </trkpt>
      <trkpt lat="42.86475" lon="0.96056">
        <ele>1269.5583496094</ele>
        <time>2019-05-29T11:14:55Z</time>
      </trkpt>
      <trkpt lat="42.86483" lon="0.96062">
        <ele>1266.1936035156</ele>
        <time>2019-05-29T11:15:03Z</time>
      </trkpt>
      <trkpt lat="42.86497" lon="0.96073">
        <ele>1263.3098144531</ele>
        <time>2019-05-29T11:15:14Z</time>
      </trkpt>
      <trkpt lat="42.86503" lon="0.96086">
        <ele>1259.9448242188</ele>
        <time>2019-05-29T11:15:28Z</time>
      </trkpt>
      <trkpt lat="42.8651" lon="0.96093">
        <ele>1257.0610351562</ele>
        <time>2019-05-29T11:15:38Z</time>
      </trkpt>
      <trkpt lat="42.86522" lon="0.961">
        <ele>1254.1772460938</ele>
        <time>2019-05-29T11:15:51Z</time>
      </trkpt>
      <trkpt lat="42.8653" lon="0.96106">
        <ele>1250.33203125</ele>
        <time>2019-05-29T11:16:02Z</time>
      </trkpt>
      <trkpt lat="42.86545" lon="0.96114">
        <ele>1246.9672851562</ele>
        <time>2019-05-29T11:16:13Z</time>
      </trkpt>
      <trkpt lat="42.86552" lon="0.96122">
        <ele>1245.0446777344</ele>
        <time>2019-05-29T11:16:20Z</time>
      </trkpt>
      <trkpt lat="42.86556" lon="0.9613">
        <ele>1242.1606445312</ele>
        <time>2019-05-29T11:16:28Z</time>
      </trkpt>
      <trkpt lat="42.86561" lon="0.96136">
        <ele>1239.7573242188</ele>
        <time>2019-05-29T11:16:33Z</time>
      </trkpt>
      <trkpt lat="42.86567" lon="0.96142">
        <ele>1237.8347167969</ele>
        <time>2019-05-29T11:16:38Z</time>
      </trkpt>
      <trkpt lat="42.86572" lon="0.96147">
        <ele>1235.912109375</ele>
        <time>2019-05-29T11:16:43Z</time>
      </trkpt>
      <trkpt lat="42.86581" lon="0.96153">
        <ele>1234.4702148438</ele>
        <time>2019-05-29T11:16:48Z</time>
      </trkpt>
      <trkpt lat="42.86585" lon="0.96156">
        <ele>1233.0280761719</ele>
        <time>2019-05-29T11:16:51Z</time>
      </trkpt>
      <trkpt lat="42.86591" lon="0.96163">
        <ele>1231.1057128906</ele>
        <time>2019-05-29T11:16:55Z</time>
      </trkpt>
      <trkpt lat="42.86603" lon="0.96173">
        <ele>1228.2216796875</ele>
        <time>2019-05-29T11:17:01Z</time>
      </trkpt>
      <trkpt lat="42.86614" lon="0.96184">
        <ele>1225.8181152344</ele>
        <time>2019-05-29T11:17:08Z</time>
      </trkpt>
      <trkpt lat="42.86627" lon="0.96202">
        <ele>1222.9343261719</ele>
        <time>2019-05-29T11:17:22Z</time>
      </trkpt>
      <trkpt lat="42.86632" lon="0.96217">
        <ele>1220.0502929688</ele>
        <time>2019-05-29T11:17:29Z</time>
      </trkpt>
      <trkpt lat="42.86632" lon="0.96219">
        <ele>1220.0502929688</ele>
        <time>2019-05-29T11:17:30Z</time>
      </trkpt>
      <trkpt lat="42.86638" lon="0.96229">
        <ele>1218.1276855469</ele>
        <time>2019-05-29T11:17:34Z</time>
      </trkpt>
      <trkpt lat="42.86641" lon="0.96235">
        <ele>1216.6857910156</ele>
        <time>2019-05-29T11:17:37Z</time>
      </trkpt>
      <trkpt lat="42.86645" lon="0.96246">
        <ele>1215.2438964844</ele>
        <time>2019-05-29T11:17:41Z</time>
      </trkpt>
      <trkpt lat="42.86648" lon="0.96253">
        <ele>1212.8405761719</ele>
        <time>2019-05-29T11:17:45Z</time>
      </trkpt>
      <trkpt lat="42.86651" lon="0.96259">
        <ele>1211.8791503906</ele>
        <time>2019-05-29T11:17:49Z</time>
      </trkpt>
      <trkpt lat="42.86657" lon="0.96283">
        <ele>1208.0339355469</ele>
        <time>2019-05-29T11:18:00Z</time>
      </trkpt>
      <trkpt lat="42.86664" lon="0.96307">
        <ele>1204.6691894531</ele>
        <time>2019-05-29T11:18:16Z</time>
      </trkpt>
      <trkpt lat="42.86671" lon="0.96321">
        <ele>1201.3046875</ele>
        <time>2019-05-29T11:18:25Z</time>
      </trkpt>
      <trkpt lat="42.86672" lon="0.96338">
        <ele>1200.8239746094</ele>
        <time>2019-05-29T11:18:31Z</time>
      </trkpt>
      <trkpt lat="42.86682" lon="0.96355">
        <ele>1199.3820800781</ele>
        <time>2019-05-29T11:18:39Z</time>
      </trkpt>
      <trkpt lat="42.86685" lon="0.96364">
        <ele>1198.9013671875</ele>
        <time>2019-05-29T11:18:43Z</time>
      </trkpt>
      <trkpt lat="42.86687" lon="0.9637">
        <ele>1198.9013671875</ele>
        <time>2019-05-29T11:18:46Z</time>
      </trkpt>
      <trkpt lat="42.86704" lon="0.96392">
        <ele>1197.4594726562</ele>
        <time>2019-05-29T11:18:58Z</time>
      </trkpt>
      <trkpt lat="42.86703" lon="0.96398">
        <ele>1197.9401855469</ele>
        <time>2019-05-29T11:19:01Z</time>
      </trkpt>
      <trkpt lat="42.867" lon="0.96401">
        <ele>1198.9013671875</ele>
        <time>2019-05-29T11:19:06Z</time>
      </trkpt>
      <trkpt lat="42.86694" lon="0.96405">
        <ele>1198.4206542969</ele>
        <time>2019-05-29T11:19:11Z</time>
      </trkpt>
      <trkpt lat="42.86675" lon="0.96414">
        <ele>1197.9401855469</ele>
        <time>2019-05-29T11:19:27Z</time>
      </trkpt>
      <trkpt lat="42.8666" lon="0.96423">
        <ele>1197.9401855469</ele>
        <time>2019-05-29T11:19:43Z</time>
      </trkpt>
      <trkpt lat="42.86649" lon="0.96437">
        <ele>1195.0559082031</ele>
        <time>2019-05-29T11:19:59Z</time>
      </trkpt>
      <trkpt lat="42.86643" lon="0.96456">
        <ele>1196.017578125</ele>
        <time>2019-05-29T11:20:11Z</time>
      </trkpt>
      <trkpt lat="42.86625" lon="0.9648">
        <ele>1196.017578125</ele>
        <time>2019-05-29T11:20:28Z</time>
      </trkpt>
      <trkpt lat="42.86599" lon="0.96504">
        <ele>1194.0947265625</ele>
        <time>2019-05-29T11:20:47Z</time>
      </trkpt>
      <trkpt lat="42.86586" lon="0.96523">
        <ele>1191.69140625</ele>
        <time>2019-05-29T11:21:04Z</time>
      </trkpt>
      <trkpt lat="42.86583" lon="0.96539">
        <ele>1190.2495117188</ele>
        <time>2019-05-29T11:21:13Z</time>
      </trkpt>
      <trkpt lat="42.86577" lon="0.96569">
        <ele>1186.884765625</ele>
        <time>2019-05-29T11:21:33Z</time>
      </trkpt>
      <trkpt lat="42.86563" lon="0.96589">
        <ele>1187.3654785156</ele>
        <time>2019-05-29T11:21:43Z</time>
      </trkpt>
      <trkpt lat="42.86543" lon="0.9661">
        <ele>1186.404296875</ele>
        <time>2019-05-29T11:21:54Z</time>
      </trkpt>
      <trkpt lat="42.86542" lon="0.96618">
        <ele>1186.404296875</ele>
        <time>2019-05-29T11:22:01Z</time>
      </trkpt>
      <trkpt lat="42.8654" lon="0.96629">
        <ele>1185.9235839844</ele>
        <time>2019-05-29T11:22:07Z</time>
      </trkpt>
      <trkpt lat="42.86542" lon="0.96637">
        <ele>1185.4428710938</ele>
        <time>2019-05-29T11:22:11Z</time>
      </trkpt>
      <trkpt lat="42.86537" lon="0.96664">
        <ele>1185.4428710938</ele>
        <time>2019-05-29T11:22:29Z</time>
      </trkpt>
      <trkpt lat="42.8654" lon="0.96678">
        <ele>1184.9624023438</ele>
        <time>2019-05-29T11:22:43Z</time>
      </trkpt>
      <trkpt lat="42.86542" lon="0.96683">
        <ele>1184.4816894531</ele>
        <time>2019-05-29T11:22:46Z</time>
      </trkpt>
      <trkpt lat="42.86553" lon="0.96701">
        <ele>1183.5202636719</ele>
        <time>2019-05-29T11:22:55Z</time>
      </trkpt>
      <trkpt lat="42.86556" lon="0.9671">
        <ele>1182.5590820312</ele>
        <time>2019-05-29T11:23:01Z</time>
      </trkpt>
      <trkpt lat="42.86555" lon="0.96728">
        <ele>1180.6364746094</ele>
        <time>2019-05-29T11:23:12Z</time>
      </trkpt>
      <trkpt lat="42.86562" lon="0.96736">
        <ele>1179.1940917969</ele>
        <time>2019-05-29T11:23:18Z</time>
      </trkpt>
      <trkpt lat="42.86566" lon="0.96759">
        <ele>1175.8295898438</ele>
        <time>2019-05-29T11:23:34Z</time>
      </trkpt>
      <trkpt lat="42.86563" lon="0.96767">
        <ele>1174.8684082031</ele>
        <time>2019-05-29T11:23:41Z</time>
      </trkpt>
      <trkpt lat="42.86554" lon="0.96789">
        <ele>1171.984375</ele>
        <time>2019-05-29T11:23:56Z</time>
      </trkpt>
      <trkpt lat="42.86554" lon="0.96791">
        <ele>1172.4650878906</ele>
        <time>2019-05-29T11:23:59Z</time>
      </trkpt>
      <trkpt lat="42.86562" lon="0.96815">
        <ele>1170.0617675781</ele>
        <time>2019-05-29T11:24:15Z</time>
      </trkpt>
      <trkpt lat="42.86568" lon="0.96835">
        <ele>1168.6198730469</ele>
        <time>2019-05-29T11:24:28Z</time>
      </trkpt>
      <trkpt lat="42.86577" lon="0.9686">
        <ele>1168.1391601562</ele>
        <time>2019-05-29T11:24:43Z</time>
      </trkpt>
      <trkpt lat="42.8658" lon="0.96865">
        <ele>1168.6198730469</ele>
        <time>2019-05-29T11:24:46Z</time>
      </trkpt>
      <trkpt lat="42.86579" lon="0.96872">
        <ele>1168.6198730469</ele>
        <time>2019-05-29T11:24:50Z</time>
      </trkpt>
      <trkpt lat="42.86578" lon="0.96882">
        <ele>1167.6584472656</ele>
        <time>2019-05-29T11:24:55Z</time>
      </trkpt>
      <trkpt lat="42.86583" lon="0.96897">
        <ele>1167.1779785156</ele>
        <time>2019-05-29T11:25:02Z</time>
      </trkpt>
      <trkpt lat="42.8658" lon="0.96909">
        <ele>1166.697265625</ele>
        <time>2019-05-29T11:25:07Z</time>
      </trkpt>
      <trkpt lat="42.86576" lon="0.96918">
        <ele>1166.2165527344</ele>
        <time>2019-05-29T11:25:11Z</time>
      </trkpt>
      <trkpt lat="42.86583" lon="0.96932">
        <ele>1166.2165527344</ele>
        <time>2019-05-29T11:25:22Z</time>
      </trkpt>
      <trkpt lat="42.86607" lon="0.96953">
        <ele>1164.7746582031</ele>
        <time>2019-05-29T11:25:33Z</time>
      </trkpt>
      <trkpt lat="42.86612" lon="0.96963">
        <ele>1163.8129882812</ele>
        <time>2019-05-29T11:25:42Z</time>
      </trkpt>
      <trkpt lat="42.86614" lon="0.96969">
        <ele>1163.8129882812</ele>
        <time>2019-05-29T11:25:56Z</time>
      </trkpt>
      <trkpt lat="42.86627" lon="0.96972">
        <ele>1161.890625</ele>
        <time>2019-05-29T11:26:09Z</time>
      </trkpt>
      <trkpt lat="42.86635" lon="0.9698">
        <ele>1159.0065917969</ele>
        <time>2019-05-29T11:26:17Z</time>
      </trkpt>
      <trkpt lat="42.86636" lon="0.9698">
        <ele>1158.0454101562</ele>
        <time>2019-05-29T11:26:19Z</time>
      </trkpt>
      <trkpt lat="42.86638" lon="0.96981">
        <ele>1157.083984375</ele>
        <time>2019-05-29T11:26:21Z</time>
      </trkpt>
      <trkpt lat="42.86645" lon="0.96983">
        <ele>1155.1613769531</ele>
        <time>2019-05-29T11:26:26Z</time>
      </trkpt>
      <trkpt lat="42.86654" lon="0.96988">
        <ele>1152.27734375</ele>
        <time>2019-05-29T11:26:33Z</time>
      </trkpt>
      <trkpt lat="42.86663" lon="0.96995">
        <ele>1150.3549804688</ele>
        <time>2019-05-29T11:26:40Z</time>
      </trkpt>
      <trkpt lat="42.86688" lon="0.97011">
        <ele>1147.470703125</ele>
        <time>2019-05-29T11:26:50Z</time>
      </trkpt>
      <trkpt lat="42.86692" lon="0.97013">
        <ele>1146.9899902344</ele>
        <time>2019-05-29T11:26:52Z</time>
      </trkpt>
      <trkpt lat="42.86698" lon="0.97015">
        <ele>1146.0288085938</ele>
        <time>2019-05-29T11:26:54Z</time>
      </trkpt>
      <trkpt lat="42.86718" lon="0.97026">
        <ele>1143.6254882812</ele>
        <time>2019-05-29T11:27:03Z</time>
      </trkpt>
      <trkpt lat="42.86723" lon="0.97028">
        <ele>1144.1062011719</ele>
        <time>2019-05-29T11:27:05Z</time>
      </trkpt>
      <trkpt lat="42.86728" lon="0.97031">
        <ele>1142.6643066406</ele>
        <time>2019-05-29T11:27:08Z</time>
      </trkpt>
      <trkpt lat="42.86741" lon="0.97037">
        <ele>1140.2609863281</ele>
        <time>2019-05-29T11:27:17Z</time>
      </trkpt>
      <trkpt lat="42.8676" lon="0.97053">
        <ele>1141.2221679688</ele>
        <time>2019-05-29T11:27:31Z</time>
      </trkpt>
      <trkpt lat="42.86769" lon="0.97061">
        <ele>1141.7028808594</ele>
        <time>2019-05-29T11:27:45Z</time>
      </trkpt>
      <trkpt lat="42.86772" lon="0.9707">
        <ele>1144.5866699219</ele>
        <time>2019-05-29T11:28:28Z</time>
      </trkpt>
      <trkpt lat="42.86771" lon="0.97075">
        <ele>1146.9899902344</ele>
        <time>2019-05-29T11:28:39Z</time>
      </trkpt>
      <trkpt lat="42.86763" lon="0.9709">
        <ele>1149.8742675781</ele>
        <time>2019-05-29T11:28:52Z</time>
      </trkpt>
      <trkpt lat="42.86761" lon="0.97107">
        <ele>1151.3161621094</ele>
        <time>2019-05-29T11:29:05Z</time>
      </trkpt>
      <trkpt lat="42.86761" lon="0.97112">
        <ele>1152.27734375</ele>
        <time>2019-05-29T11:29:09Z</time>
      </trkpt>
      <trkpt lat="42.8676" lon="0.97125">
        <ele>1153.2387695312</ele>
        <time>2019-05-29T11:29:18Z</time>
      </trkpt>
      <trkpt lat="42.8676" lon="0.9713">
        <ele>1153.2387695312</ele>
        <time>2019-05-29T11:29:22Z</time>
      </trkpt>
      <trkpt lat="42.86759" lon="0.97152">
        <ele>1153.2387695312</ele>
        <time>2019-05-29T11:29:34Z</time>
      </trkpt>
      <trkpt lat="42.86761" lon="0.97163">
        <ele>1152.7580566406</ele>
        <time>2019-05-29T11:29:41Z</time>
      </trkpt>
      <trkpt lat="42.86768" lon="0.97168">
        <ele>1151.796875</ele>
        <time>2019-05-29T11:29:49Z</time>
      </trkpt>
      <trkpt lat="42.86773" lon="0.9718">
        <ele>1149.8742675781</ele>
        <time>2019-05-29T11:29:57Z</time>
      </trkpt>
      <trkpt lat="42.86775" lon="0.97184">
        <ele>1149.8742675781</ele>
        <time>2019-05-29T11:30:00Z</time>
      </trkpt>
      <trkpt lat="42.86777" lon="0.97192">
        <ele>1148.9128417969</ele>
        <time>2019-05-29T11:30:04Z</time>
      </trkpt>
      <trkpt lat="42.86783" lon="0.97208">
        <ele>1146.9899902344</ele>
        <time>2019-05-29T11:30:13Z</time>
      </trkpt>
      <trkpt lat="42.8679" lon="0.97232">
        <ele>1145.0673828125</ele>
        <time>2019-05-29T11:30:24Z</time>
      </trkpt>
      <trkpt lat="42.86794" lon="0.97249">
        <ele>1144.5866699219</ele>
        <time>2019-05-29T11:30:31Z</time>
      </trkpt>
      <trkpt lat="42.8679" lon="0.97266">
        <ele>1144.1062011719</ele>
        <time>2019-05-29T11:30:39Z</time>
      </trkpt>
      <trkpt lat="42.86786" lon="0.97279">
        <ele>1142.6643066406</ele>
        <time>2019-05-29T11:30:46Z</time>
      </trkpt>
      <trkpt lat="42.86788" lon="0.97298">
        <ele>1143.6254882812</ele>
        <time>2019-05-29T11:30:57Z</time>
      </trkpt>
      <trkpt lat="42.86797" lon="0.97323">
        <ele>1143.6254882812</ele>
        <time>2019-05-29T11:31:11Z</time>
      </trkpt>
      <trkpt lat="42.86797" lon="0.97342">
        <ele>1141.7028808594</ele>
        <time>2019-05-29T11:31:24Z</time>
      </trkpt>
      <trkpt lat="42.86793" lon="0.9735">
        <ele>1140.7414550781</ele>
        <time>2019-05-29T11:31:31Z</time>
      </trkpt>
      <trkpt lat="42.86774" lon="0.97371">
        <ele>1137.8576660156</ele>
        <time>2019-05-29T11:31:54Z</time>
      </trkpt>
      <trkpt lat="42.86762" lon="0.97387">
        <ele>1134.9738769531</ele>
        <time>2019-05-29T11:32:10Z</time>
      </trkpt>
      <trkpt lat="42.86748" lon="0.97402">
        <ele>1131.6088867188</ele>
        <time>2019-05-29T11:32:23Z</time>
      </trkpt>
      <trkpt lat="42.86746" lon="0.97404">
        <ele>1131.1284179688</ele>
        <time>2019-05-29T11:32:24Z</time>
      </trkpt>
      <trkpt lat="42.86721" lon="0.9743">
        <ele>1128.2443847656</ele>
        <time>2019-05-29T11:32:44Z</time>
      </trkpt>
      <trkpt lat="42.86715" lon="0.9745">
        <ele>1124.8798828125</ele>
        <time>2019-05-29T11:32:58Z</time>
      </trkpt>
      <trkpt lat="42.86715" lon="0.9745">
        <ele>1124.3991699219</ele>
        <time>2019-05-29T11:32:59Z</time>
      </trkpt>
      <trkpt lat="42.86713" lon="0.97458">
        <ele>1123.4379882812</ele>
        <time>2019-05-29T11:33:05Z</time>
      </trkpt>
      <trkpt lat="42.86715" lon="0.97462">
        <ele>1121.9958496094</ele>
        <time>2019-05-29T11:33:08Z</time>
      </trkpt>
      <trkpt lat="42.8674" lon="0.97476">
        <ele>1118.6313476562</ele>
        <time>2019-05-29T11:33:21Z</time>
      </trkpt>
      <trkpt lat="42.86741" lon="0.9748">
        <ele>1116.7087402344</ele>
        <time>2019-05-29T11:33:26Z</time>
      </trkpt>
      <trkpt lat="42.86743" lon="0.97489">
        <ele>1114.3051757812</ele>
        <time>2019-05-29T11:33:33Z</time>
      </trkpt>
      <trkpt lat="42.86745" lon="0.97495">
        <ele>1112.3825683594</ele>
        <time>2019-05-29T11:33:38Z</time>
      </trkpt>
      <trkpt lat="42.86748" lon="0.9751">
        <ele>1109.0180664062</ele>
        <time>2019-05-29T11:33:50Z</time>
      </trkpt>
      <trkpt lat="42.86749" lon="0.97511">
        <ele>1108.5373535156</ele>
        <time>2019-05-29T11:33:51Z</time>
      </trkpt>
      <trkpt lat="42.86759" lon="0.97519">
        <ele>1105.6535644531</ele>
        <time>2019-05-29T11:33:58Z</time>
      </trkpt>
      <trkpt lat="42.86766" lon="0.97529">
        <ele>1102.76953125</ele>
        <time>2019-05-29T11:34:05Z</time>
      </trkpt>
      <trkpt lat="42.8677" lon="0.97539">
        <ele>1100.3664550781</ele>
        <time>2019-05-29T11:34:11Z</time>
      </trkpt>
      <trkpt lat="42.86771" lon="0.97541">
        <ele>1099.8854980469</ele>
        <time>2019-05-29T11:34:12Z</time>
      </trkpt>
      <trkpt lat="42.86774" lon="0.97549">
        <ele>1098.443359375</ele>
        <time>2019-05-29T11:34:15Z</time>
      </trkpt>
      <trkpt lat="42.86778" lon="0.97556">
        <ele>1097.0014648438</ele>
        <time>2019-05-29T11:34:18Z</time>
      </trkpt>
      <trkpt lat="42.86781" lon="0.9756">
        <ele>1096.0402832031</ele>
        <time>2019-05-29T11:34:20Z</time>
      </trkpt>
      <trkpt lat="42.86782" lon="0.97564">
        <ele>1094.5981445312</ele>
        <time>2019-05-29T11:34:23Z</time>
      </trkpt>
      <trkpt lat="42.86783" lon="0.97575">
        <ele>1091.2336425781</ele>
        <time>2019-05-29T11:34:32Z</time>
      </trkpt>
      <trkpt lat="42.86784" lon="0.97596">
        <ele>1087.869140625</ele>
        <time>2019-05-29T11:34:46Z</time>
      </trkpt>
      <trkpt lat="42.86786" lon="0.97608">
        <ele>1084.9853515625</ele>
        <time>2019-05-29T11:35:00Z</time>
      </trkpt>
      <trkpt lat="42.86796" lon="0.97623">
        <ele>1082.1010742188</ele>
        <time>2019-05-29T11:35:08Z</time>
      </trkpt>
      <trkpt lat="42.868" lon="0.97631">
        <ele>1080.6591796875</ele>
        <time>2019-05-29T11:35:12Z</time>
      </trkpt>
      <trkpt lat="42.86804" lon="0.97638">
        <ele>1080.6591796875</ele>
        <time>2019-05-29T11:35:16Z</time>
      </trkpt>
      <trkpt lat="42.86812" lon="0.97646">
        <ele>1080.1784667969</ele>
        <time>2019-05-29T11:35:22Z</time>
      </trkpt>
      <trkpt lat="42.86814" lon="0.97649">
        <ele>1080.1784667969</ele>
        <time>2019-05-29T11:35:24Z</time>
      </trkpt>
      <trkpt lat="42.86825" lon="0.97665">
        <ele>1078.255859375</ele>
        <time>2019-05-29T11:35:36Z</time>
      </trkpt>
      <trkpt lat="42.86841" lon="0.97678">
        <ele>1074.8913574219</ele>
        <time>2019-05-29T11:35:51Z</time>
      </trkpt>
      <trkpt lat="42.86863" lon="0.97695">
        <ele>1071.5266113281</ele>
        <time>2019-05-29T11:36:09Z</time>
      </trkpt>
      <trkpt lat="42.86867" lon="0.97699">
        <ele>1072.4880371094</ele>
        <time>2019-05-29T11:36:12Z</time>
      </trkpt>
      <trkpt lat="42.86878" lon="0.97712">
        <ele>1072.96875</ele>
        <time>2019-05-29T11:36:22Z</time>
      </trkpt>
      <trkpt lat="42.8688" lon="0.97726">
        <ele>1073.4494628906</ele>
        <time>2019-05-29T11:36:31Z</time>
      </trkpt>
      <trkpt lat="42.86888" lon="0.97746">
        <ele>1070.5654296875</ele>
        <time>2019-05-29T11:36:46Z</time>
      </trkpt>
      <trkpt lat="42.86889" lon="0.97748">
        <ele>1069.6042480469</ele>
        <time>2019-05-29T11:36:48Z</time>
      </trkpt>
      <trkpt lat="42.869" lon="0.97768">
        <ele>1072.4880371094</ele>
        <time>2019-05-29T11:37:01Z</time>
      </trkpt>
      <trkpt lat="42.86908" lon="0.97783">
        <ele>1074.8913574219</ele>
        <time>2019-05-29T11:37:14Z</time>
      </trkpt>
      <trkpt lat="42.86911" lon="0.97786">
        <ele>1076.8139648438</ele>
        <time>2019-05-29T11:37:20Z</time>
      </trkpt>
      <trkpt lat="42.8691" lon="0.97789">
        <ele>1078.7365722656</ele>
        <time>2019-05-29T11:37:28Z</time>
      </trkpt>
      <trkpt lat="42.86915" lon="0.97796">
        <ele>1081.1398925781</ele>
        <time>2019-05-29T11:37:36Z</time>
      </trkpt>
      <trkpt lat="42.86916" lon="0.97797">
        <ele>1081.1398925781</ele>
        <time>2019-05-29T11:37:37Z</time>
      </trkpt>
      <trkpt lat="42.86921" lon="0.97813">
        <ele>1080.6591796875</ele>
        <time>2019-05-29T11:37:50Z</time>
      </trkpt>
      <trkpt lat="42.86922" lon="0.97814">
        <ele>1080.6591796875</ele>
        <time>2019-05-29T11:38:17Z</time>
      </trkpt>
      <trkpt lat="42.86923" lon="0.97834">
        <ele>1078.255859375</ele>
        <time>2019-05-29T11:38:30Z</time>
      </trkpt>
      <trkpt lat="42.86929" lon="0.97849">
        <ele>1076.3332519531</ele>
        <time>2019-05-29T11:38:42Z</time>
      </trkpt>
      <trkpt lat="42.86929" lon="0.97851">
        <ele>1076.3332519531</ele>
        <time>2019-05-29T11:38:44Z</time>
      </trkpt>
      <trkpt lat="42.86938" lon="0.97873">
        <ele>1074.8913574219</ele>
        <time>2019-05-29T11:38:56Z</time>
      </trkpt>
      <trkpt lat="42.8694" lon="0.97886">
        <ele>1072.96875</ele>
        <time>2019-05-29T11:39:04Z</time>
      </trkpt>
      <trkpt lat="42.8695" lon="0.97921">
        <ele>1070.5654296875</ele>
        <time>2019-05-29T11:39:19Z</time>
      </trkpt>
      <trkpt lat="42.86948" lon="0.97931">
        <ele>1069.1235351562</ele>
        <time>2019-05-29T11:39:24Z</time>
      </trkpt>
      <trkpt lat="42.86943" lon="0.97952">
        <ele>1065.7587890625</ele>
        <time>2019-05-29T11:39:37Z</time>
      </trkpt>
      <trkpt lat="42.86932" lon="0.9798">
        <ele>1063.35546875</ele>
        <time>2019-05-29T11:39:51Z</time>
      </trkpt>
      <trkpt lat="42.86919" lon="0.97995">
        <ele>1062.3940429688</ele>
        <time>2019-05-29T11:40:08Z</time>
      </trkpt>
      <trkpt lat="42.86912" lon="0.98011">
        <ele>1059.0295410156</ele>
        <time>2019-05-29T11:40:27Z</time>
      </trkpt>
      <trkpt lat="42.86909" lon="0.98015">
        <ele>1058.068359375</ele>
        <time>2019-05-29T11:40:32Z</time>
      </trkpt>
      <trkpt lat="42.86906" lon="0.98036">
        <ele>1055.6650390625</ele>
        <time>2019-05-29T11:40:49Z</time>
      </trkpt>
      <trkpt lat="42.86906" lon="0.98043">
        <ele>1054.2231445312</ele>
        <time>2019-05-29T11:40:52Z</time>
      </trkpt>
      <trkpt lat="42.86904" lon="0.98052">
        <ele>1052.7810058594</ele>
        <time>2019-05-29T11:40:56Z</time>
      </trkpt>
      <trkpt lat="42.86908" lon="0.98071">
        <ele>1050.8581542969</ele>
        <time>2019-05-29T11:41:07Z</time>
      </trkpt>
      <trkpt lat="42.86914" lon="0.98089">
        <ele>1049.8969726562</ele>
        <time>2019-05-29T11:41:19Z</time>
      </trkpt>
      <trkpt lat="42.86915" lon="0.98102">
        <ele>1047.9743652344</ele>
        <time>2019-05-29T11:41:26Z</time>
      </trkpt>
      <trkpt lat="42.86921" lon="0.98114">
        <ele>1046.5324707031</ele>
        <time>2019-05-29T11:41:34Z</time>
      </trkpt>
      <trkpt lat="42.86929" lon="0.98136">
        <ele>1043.6484375</ele>
        <time>2019-05-29T11:41:48Z</time>
      </trkpt>
      <trkpt lat="42.8693" lon="0.98173">
        <ele>1042.2065429688</ele>
        <time>2019-05-29T11:42:07Z</time>
      </trkpt>
      <trkpt lat="42.86937" lon="0.98186">
        <ele>1040.2839355469</ele>
        <time>2019-05-29T11:42:21Z</time>
      </trkpt>
      <trkpt lat="42.86947" lon="0.98201">
        <ele>1038.361328125</ele>
        <time>2019-05-29T11:42:34Z</time>
      </trkpt>
      <trkpt lat="42.86963" lon="0.98228">
        <ele>1034.9965820312</ele>
        <time>2019-05-29T11:42:48Z</time>
      </trkpt>
      <trkpt lat="42.86979" lon="0.98239">
        <ele>1032.1125488281</ele>
        <time>2019-05-29T11:43:00Z</time>
      </trkpt>
      <trkpt lat="42.86982" lon="0.98242">
        <ele>1031.6318359375</ele>
        <time>2019-05-29T11:43:03Z</time>
      </trkpt>
      <trkpt lat="42.86995" lon="0.98261">
        <ele>1028.748046875</ele>
        <time>2019-05-29T11:43:17Z</time>
      </trkpt>
      <trkpt lat="42.86999" lon="0.98265">
        <ele>1027.3061523438</ele>
        <time>2019-05-29T11:43:21Z</time>
      </trkpt>
      <trkpt lat="42.87003" lon="0.98277">
        <ele>1024.4221191406</ele>
        <time>2019-05-29T11:43:30Z</time>
      </trkpt>
      <trkpt lat="42.87011" lon="0.98289">
        <ele>1022.4995117188</ele>
        <time>2019-05-29T11:43:39Z</time>
      </trkpt>
      <trkpt lat="42.87026" lon="0.98306">
        <ele>1019.6154785156</ele>
        <time>2019-05-29T11:43:54Z</time>
      </trkpt>
      <trkpt lat="42.8703" lon="0.98309">
        <ele>1018.6540527344</ele>
        <time>2019-05-29T11:43:58Z</time>
      </trkpt>
      <trkpt lat="42.87043" lon="0.98329">
        <ele>1014.8088378906</ele>
        <time>2019-05-29T11:44:13Z</time>
      </trkpt>
      <trkpt lat="42.87047" lon="0.98336">
        <ele>1013.3669433594</ele>
        <time>2019-05-29T11:44:20Z</time>
      </trkpt>
      <trkpt lat="42.87057" lon="0.98356">
        <ele>1010.0021972656</ele>
        <time>2019-05-29T11:44:35Z</time>
      </trkpt>
      <trkpt lat="42.87069" lon="0.98382">
        <ele>1007.5991210938</ele>
        <time>2019-05-29T11:44:49Z</time>
      </trkpt>
      <trkpt lat="42.87076" lon="0.98398">
        <ele>1004.7150878906</ele>
        <time>2019-05-29T11:45:01Z</time>
      </trkpt>
      <trkpt lat="42.87087" lon="0.98421">
        <ele>1002.7922363281</ele>
        <time>2019-05-29T11:45:14Z</time>
      </trkpt>
      <trkpt lat="42.87088" lon="0.98423">
        <ele>1002.3115234375</ele>
        <time>2019-05-29T11:45:15Z</time>
      </trkpt>
      <trkpt lat="42.87087" lon="0.98441">
        <ele>1000.8696289062</ele>
        <time>2019-05-29T11:45:23Z</time>
      </trkpt>
      <trkpt lat="42.87093" lon="0.98461">
        <ele>999.427734375</ele>
        <time>2019-05-29T11:45:38Z</time>
      </trkpt>
      <trkpt lat="42.87108" lon="0.98482">
        <ele>997.50512695312</ele>
        <time>2019-05-29T11:45:54Z</time>
      </trkpt>
      <trkpt lat="42.87112" lon="0.98513">
        <ele>994.140625</ele>
        <time>2019-05-29T11:46:08Z</time>
      </trkpt>
      <trkpt lat="42.87114" lon="0.9855">
        <ele>991.25659179688</ele>
        <time>2019-05-29T11:46:25Z</time>
      </trkpt>
      <trkpt lat="42.87112" lon="0.98569">
        <ele>987.89184570312</ele>
        <time>2019-05-29T11:46:36Z</time>
      </trkpt>
      <trkpt lat="42.87108" lon="0.98595">
        <ele>985.00805664062</ele>
        <time>2019-05-29T11:46:52Z</time>
      </trkpt>
      <trkpt lat="42.87117" lon="0.98623">
        <ele>982.1240234375</ele>
        <time>2019-05-29T11:47:14Z</time>
      </trkpt>
      <trkpt lat="42.87119" lon="0.98646">
        <ele>978.75952148438</ele>
        <time>2019-05-29T11:47:29Z</time>
      </trkpt>
      <trkpt lat="42.8712" lon="0.98651">
        <ele>978.75952148438</ele>
        <time>2019-05-29T11:47:32Z</time>
      </trkpt>
      <trkpt lat="42.87123" lon="0.98673">
        <ele>975.39477539062</ele>
        <time>2019-05-29T11:47:48Z</time>
      </trkpt>
      <trkpt lat="42.87122" lon="0.98701">
        <ele>972.99169921875</ele>
        <time>2019-05-29T11:48:05Z</time>
      </trkpt>
      <trkpt lat="42.87122" lon="0.98715">
        <ele>969.626953125</ele>
        <time>2019-05-29T11:48:19Z</time>
      </trkpt>
      <trkpt lat="42.87122" lon="0.9873">
        <ele>967.2236328125</ele>
        <time>2019-05-29T11:48:30Z</time>
      </trkpt>
      <trkpt lat="42.87123" lon="0.98739">
        <ele>965.30102539062</ele>
        <time>2019-05-29T11:48:38Z</time>
      </trkpt>
      <trkpt lat="42.87126" lon="0.98757">
        <ele>961.9365234375</ele>
        <time>2019-05-29T11:48:54Z</time>
      </trkpt>
      <trkpt lat="42.87127" lon="0.98758">
        <ele>960.97509765625</ele>
        <time>2019-05-29T11:48:56Z</time>
      </trkpt>
      <trkpt lat="42.87128" lon="0.98762">
        <ele>960.013671875</ele>
        <time>2019-05-29T11:49:01Z</time>
      </trkpt>
      <trkpt lat="42.87128" lon="0.9878">
        <ele>956.64916992188</ele>
        <time>2019-05-29T11:49:18Z</time>
      </trkpt>
      <trkpt lat="42.87129" lon="0.98787">
        <ele>954.72631835938</ele>
        <time>2019-05-29T11:49:24Z</time>
      </trkpt>
      <trkpt lat="42.87128" lon="0.98818">
        <ele>951.84252929688</ele>
        <time>2019-05-29T11:49:45Z</time>
      </trkpt>
      <trkpt lat="42.87125" lon="0.98828">
        <ele>947.99731445312</ele>
        <time>2019-05-29T11:49:59Z</time>
      </trkpt>
      <trkpt lat="42.87126" lon="0.98853">
        <ele>945.11328125</ele>
        <time>2019-05-29T11:50:15Z</time>
      </trkpt>
      <trkpt lat="42.87132" lon="0.98862">
        <ele>944.63256835938</ele>
        <time>2019-05-29T11:50:30Z</time>
      </trkpt>
      <trkpt lat="42.87136" lon="0.98864">
        <ele>945.11328125</ele>
        <time>2019-05-29T11:50:59Z</time>
      </trkpt>
      <trkpt lat="42.87134" lon="0.98863">
        <ele>944.63256835938</ele>
        <time>2019-05-29T11:51:51Z</time>
      </trkpt>
      <trkpt lat="42.87134" lon="0.98863">
        <ele>944.15209960938</ele>
        <time>2019-05-29T11:51:52Z</time>
      </trkpt>
      <trkpt lat="42.87136" lon="0.98851">
        <ele>941.74877929688</ele>
        <time>2019-05-29T11:52:05Z</time>
      </trkpt>
      <trkpt lat="42.87142" lon="0.98839">
        <ele>938.38403320312</ele>
        <time>2019-05-29T11:52:20Z</time>
      </trkpt>
      <trkpt lat="42.87149" lon="0.98831">
        <ele>935.5</ele>
        <time>2019-05-29T11:52:31Z</time>
      </trkpt>
      <trkpt lat="42.87152" lon="0.98819">
        <ele>934.05810546875</ele>
        <time>2019-05-29T11:52:42Z</time>
      </trkpt>
      <trkpt lat="42.87153" lon="0.98808">
        <ele>932.6162109375</ele>
        <time>2019-05-29T11:52:48Z</time>
      </trkpt>
      <trkpt lat="42.87151" lon="0.98798">
        <ele>929.73217773438</ele>
        <time>2019-05-29T11:53:02Z</time>
      </trkpt>
      <trkpt lat="42.87154" lon="0.98785">
        <ele>926.36767578125</ele>
        <time>2019-05-29T11:53:15Z</time>
      </trkpt>
      <trkpt lat="42.87163" lon="0.98773">
        <ele>923.0029296875</ele>
        <time>2019-05-29T11:53:29Z</time>
      </trkpt>
      <trkpt lat="42.8717" lon="0.9876">
        <ele>920.11889648438</ele>
        <time>2019-05-29T11:53:41Z</time>
      </trkpt>
      <trkpt lat="42.87177" lon="0.98746">
        <ele>917.23510742188</ele>
        <time>2019-05-29T11:53:56Z</time>
      </trkpt>
      <trkpt lat="42.87174" lon="0.98728">
        <ele>915.3125</ele>
        <time>2019-05-29T11:54:06Z</time>
      </trkpt>
      <trkpt lat="42.87178" lon="0.98707">
        <ele>912.42846679688</ele>
        <time>2019-05-29T11:54:20Z</time>
      </trkpt>
      <trkpt lat="42.87187" lon="0.98699">
        <ele>909.54467773438</ele>
        <time>2019-05-29T11:54:33Z</time>
      </trkpt>
      <trkpt lat="42.87194" lon="0.98683">
        <ele>906.66040039062</ele>
        <time>2019-05-29T11:54:47Z</time>
      </trkpt>
      <trkpt lat="42.87193" lon="0.98672">
        <ele>906.1796875</ele>
        <time>2019-05-29T11:54:53Z</time>
      </trkpt>
      <trkpt lat="42.87198" lon="0.98656">
        <ele>902.81518554688</ele>
        <time>2019-05-29T11:55:05Z</time>
      </trkpt>
      <trkpt lat="42.87202" lon="0.98646">
        <ele>899.93139648438</ele>
        <time>2019-05-29T11:55:16Z</time>
      </trkpt>
      <trkpt lat="42.87203" lon="0.98644">
        <ele>898.4892578125</ele>
        <time>2019-05-29T11:55:18Z</time>
      </trkpt>
      <trkpt lat="42.87206" lon="0.98642">
        <ele>897.52807617188</ele>
        <time>2019-05-29T11:55:21Z</time>
      </trkpt>
      <trkpt lat="42.87218" lon="0.98635">
        <ele>894.64404296875</ele>
        <time>2019-05-29T11:55:28Z</time>
      </trkpt>
      <trkpt lat="42.87226" lon="0.98613">
        <ele>892.24096679688</ele>
        <time>2019-05-29T11:55:44Z</time>
      </trkpt>
      <trkpt lat="42.87225" lon="0.98594">
        <ele>890.79858398438</ele>
        <time>2019-05-29T11:55:57Z</time>
      </trkpt>
      <trkpt lat="42.87224" lon="0.98581">
        <ele>888.87622070312</ele>
        <time>2019-05-29T11:56:04Z</time>
      </trkpt>
      <trkpt lat="42.87225" lon="0.98554">
        <ele>889.35668945312</ele>
        <time>2019-05-29T11:56:20Z</time>
      </trkpt>
      <trkpt lat="42.87231" lon="0.9855">
        <ele>885.9921875</ele>
        <time>2019-05-29T11:56:29Z</time>
      </trkpt>
      <trkpt lat="42.87231" lon="0.98549">
        <ele>886.47290039062</ele>
        <time>2019-05-29T11:56:30Z</time>
      </trkpt>
      <trkpt lat="42.87232" lon="0.98536">
        <ele>882.62768554688</ele>
        <time>2019-05-29T11:56:41Z</time>
      </trkpt>
      <trkpt lat="42.87241" lon="0.98524">
        <ele>879.74365234375</ele>
        <time>2019-05-29T11:56:52Z</time>
      </trkpt>
      <trkpt lat="42.87243" lon="0.98523">
        <ele>878.78247070312</ele>
        <time>2019-05-29T11:56:54Z</time>
      </trkpt>
      <trkpt lat="42.87244" lon="0.98516">
        <ele>877.34057617188</ele>
        <time>2019-05-29T11:56:59Z</time>
      </trkpt>
      <trkpt lat="42.87245" lon="0.9851">
        <ele>875.41748046875</ele>
        <time>2019-05-29T11:57:05Z</time>
      </trkpt>
      <trkpt lat="42.8725" lon="0.98496">
        <ele>872.05297851562</ele>
        <time>2019-05-29T11:57:15Z</time>
      </trkpt>
      <trkpt lat="42.87262" lon="0.98488">
        <ele>868.6884765625</ele>
        <time>2019-05-29T11:57:26Z</time>
      </trkpt>
      <trkpt lat="42.87263" lon="0.98486">
        <ele>867.72705078125</ele>
        <time>2019-05-29T11:57:28Z</time>
      </trkpt>
      <trkpt lat="42.87265" lon="0.98476">
        <ele>864.84326171875</ele>
        <time>2019-05-29T11:57:35Z</time>
      </trkpt>
      <trkpt lat="42.87266" lon="0.98471">
        <ele>863.4013671875</ele>
        <time>2019-05-29T11:57:38Z</time>
      </trkpt>
      <trkpt lat="42.87272" lon="0.98461">
        <ele>860.03662109375</ele>
        <time>2019-05-29T11:57:46Z</time>
      </trkpt>
      <trkpt lat="42.87274" lon="0.98458">
        <ele>859.55590820312</ele>
        <time>2019-05-29T11:57:48Z</time>
      </trkpt>
      <trkpt lat="42.87279" lon="0.98451">
        <ele>856.671875</ele>
        <time>2019-05-29T11:57:53Z</time>
      </trkpt>
      <trkpt lat="42.87285" lon="0.98446">
        <ele>854.74926757812</ele>
        <time>2019-05-29T11:57:58Z</time>
      </trkpt>
      <trkpt lat="42.87295" lon="0.98419">
        <ele>850.90405273438</ele>
        <time>2019-05-29T11:58:12Z</time>
      </trkpt>
      <trkpt lat="42.87304" lon="0.98401">
        <ele>848.02026367188</ele>
        <time>2019-05-29T11:58:23Z</time>
      </trkpt>
      <trkpt lat="42.87304" lon="0.98396">
        <ele>846.09765625</ele>
        <time>2019-05-29T11:58:27Z</time>
      </trkpt>
      <trkpt lat="42.87305" lon="0.98393">
        <ele>844.65551757812</ele>
        <time>2019-05-29T11:58:30Z</time>
      </trkpt>
      <trkpt lat="42.87306" lon="0.9839">
        <ele>842.73291015625</ele>
        <time>2019-05-29T11:58:32Z</time>
      </trkpt>
      <trkpt lat="42.8731" lon="0.98388">
        <ele>841.29077148438</ele>
        <time>2019-05-29T11:58:36Z</time>
      </trkpt>
      <trkpt lat="42.87311" lon="0.98386">
        <ele>840.32958984375</ele>
        <time>2019-05-29T11:58:37Z</time>
      </trkpt>
      <trkpt lat="42.87321" lon="0.98377">
        <ele>838.40698242188</ele>
        <time>2019-05-29T11:58:44Z</time>
      </trkpt>
      <trkpt lat="42.87334" lon="0.98367">
        <ele>835.52294921875</ele>
        <time>2019-05-29T11:58:53Z</time>
      </trkpt>
      <trkpt lat="42.87336" lon="0.9836">
        <ele>834.56176757812</ele>
        <time>2019-05-29T11:58:56Z</time>
      </trkpt>
      <trkpt lat="42.87337" lon="0.98358">
        <ele>833.60034179688</ele>
        <time>2019-05-29T11:58:57Z</time>
      </trkpt>
      <trkpt lat="42.87347" lon="0.98313">
        <ele>831.677734375</ele>
        <time>2019-05-29T11:59:10Z</time>
      </trkpt>
      <trkpt lat="42.87354" lon="0.98293">
        <ele>828.31323242188</ele>
        <time>2019-05-29T11:59:23Z</time>
      </trkpt>
      <trkpt lat="42.87355" lon="0.98284">
        <ele>827.35180664062</ele>
        <time>2019-05-29T11:59:29Z</time>
      </trkpt>
      <trkpt lat="42.87358" lon="0.98272">
        <ele>826.39038085938</ele>
        <time>2019-05-29T11:59:34Z</time>
      </trkpt>
      <trkpt lat="42.87368" lon="0.98249">
        <ele>823.02587890625</ele>
        <time>2019-05-29T11:59:44Z</time>
      </trkpt>
      <trkpt lat="42.87371" lon="0.98222">
        <ele>821.10327148438</ele>
        <time>2019-05-29T11:59:55Z</time>
      </trkpt>
      <trkpt lat="42.87371" lon="0.98219">
        <ele>820.62255859375</ele>
        <time>2019-05-29T11:59:56Z</time>
      </trkpt>
      <trkpt lat="42.87372" lon="0.98187">
        <ele>821.10327148438</ele>
        <time>2019-05-29T12:00:11Z</time>
      </trkpt>
      <trkpt lat="42.87374" lon="0.98171">
        <ele>821.58374023438</ele>
        <time>2019-05-29T12:00:19Z</time>
      </trkpt>
      <trkpt lat="42.87381" lon="0.98139">
        <ele>821.58374023438</ele>
        <time>2019-05-29T12:00:39Z</time>
      </trkpt>
      <trkpt lat="42.87381" lon="0.98124">
        <ele>820.14184570312</ele>
        <time>2019-05-29T12:00:46Z</time>
      </trkpt>
      <trkpt lat="42.87376" lon="0.98106">
        <ele>818.21923828125</ele>
        <time>2019-05-29T12:00:57Z</time>
      </trkpt>
      <trkpt lat="42.87377" lon="0.98095">
        <ele>815.81616210938</ele>
        <time>2019-05-29T12:01:04Z</time>
      </trkpt>
      <trkpt lat="42.87383" lon="0.98089">
        <ele>814.3740234375</ele>
        <time>2019-05-29T12:01:15Z</time>
      </trkpt>
      <trkpt lat="42.87391" lon="0.98082">
        <ele>811.00927734375</ele>
        <time>2019-05-29T12:01:31Z</time>
      </trkpt>
      <trkpt lat="42.87402" lon="0.98078">
        <ele>807.64477539062</ele>
        <time>2019-05-29T12:01:45Z</time>
      </trkpt>
      <trkpt lat="42.87411" lon="0.98077">
        <ele>805.72216796875</ele>
        <time>2019-05-29T12:02:10Z</time>
      </trkpt>
      <trkpt lat="42.87419" lon="0.98077">
        <ele>803.79956054688</ele>
        <time>2019-05-29T12:02:28Z</time>
      </trkpt>
      <trkpt lat="42.87421" lon="0.98069">
        <ele>802.83813476562</ele>
        <time>2019-05-29T12:03:26Z</time>
      </trkpt>
      <trkpt lat="42.87423" lon="0.98066">
        <ele>801.876953125</ele>
        <time>2019-05-29T12:08:33Z</time>
      </trkpt>
      <trkpt lat="42.87428" lon="0.98067">
        <ele>798.51220703125</ele>
        <time>2019-05-29T12:08:48Z</time>
      </trkpt>
      <trkpt lat="42.87435" lon="0.98065">
        <ele>797.0703125</ele>
        <time>2019-05-29T12:09:10Z</time>
      </trkpt>
      <trkpt lat="42.8744" lon="0.98062">
        <ele>794.18627929688</ele>
        <time>2019-05-29T12:10:06Z</time>
      </trkpt>
      <trkpt lat="42.87445" lon="0.98062">
        <ele>792.74438476562</ele>
        <time>2019-05-29T12:10:11Z</time>
      </trkpt>
      <trkpt lat="42.87456" lon="0.98059">
        <ele>788.41845703125</ele>
        <time>2019-05-29T12:10:21Z</time>
      </trkpt>
      <trkpt lat="42.87465" lon="0.98057">
        <ele>785.05395507812</ele>
        <time>2019-05-29T12:10:32Z</time>
      </trkpt>
      <trkpt lat="42.8747" lon="0.98056">
        <ele>783.13110351562</ele>
        <time>2019-05-29T12:10:41Z</time>
      </trkpt>
      <trkpt lat="42.87478" lon="0.98055">
        <ele>779.76635742188</ele>
        <time>2019-05-29T12:10:50Z</time>
      </trkpt>
      <trkpt lat="42.8749" lon="0.98053">
        <ele>776.88256835938</ele>
        <time>2019-05-29T12:11:00Z</time>
      </trkpt>
      <trkpt lat="42.87491" lon="0.98054">
        <ele>776.40185546875</ele>
        <time>2019-05-29T12:11:01Z</time>
      </trkpt>
      <trkpt lat="42.87497" lon="0.98055">
        <ele>774.47924804688</ele>
        <time>2019-05-29T12:11:14Z</time>
      </trkpt>
      <trkpt lat="42.87512" lon="0.98055">
        <ele>770.63403320312</ele>
        <time>2019-05-29T12:11:24Z</time>
      </trkpt>
      <trkpt lat="42.87513" lon="0.98054">
        <ele>771.59521484375</ele>
        <time>2019-05-29T12:11:25Z</time>
      </trkpt>
      <trkpt lat="42.87518" lon="0.98052">
        <ele>768.71142578125</ele>
        <time>2019-05-29T12:11:30Z</time>
      </trkpt>
      <trkpt lat="42.87519" lon="0.98038">
        <ele>765.82763671875</ele>
        <time>2019-05-29T12:11:36Z</time>
      </trkpt>
      <trkpt lat="42.87519" lon="0.98025">
        <ele>764.8662109375</ele>
        <time>2019-05-29T12:11:40Z</time>
      </trkpt>
      <trkpt lat="42.87518" lon="0.97989">
        <ele>761.50146484375</ele>
        <time>2019-05-29T12:11:49Z</time>
      </trkpt>
      <trkpt lat="42.87511" lon="0.97946">
        <ele>760.5400390625</ele>
        <time>2019-05-29T12:12:01Z</time>
      </trkpt>
      <trkpt lat="42.87514" lon="0.9791">
        <ele>758.13696289062</ele>
        <time>2019-05-29T12:12:12Z</time>
      </trkpt>
      <trkpt lat="42.87525" lon="0.9788">
        <ele>754.77221679688</ele>
        <time>2019-05-29T12:12:23Z</time>
      </trkpt>
      <trkpt lat="42.87526" lon="0.97877">
        <ele>754.77221679688</ele>
        <time>2019-05-29T12:12:24Z</time>
      </trkpt>
      <trkpt lat="42.87536" lon="0.97843">
        <ele>753.33032226562</ele>
        <time>2019-05-29T12:12:33Z</time>
      </trkpt>
      <trkpt lat="42.87541" lon="0.9781">
        <ele>751.88842773438</ele>
        <time>2019-05-29T12:12:41Z</time>
      </trkpt>
      <trkpt lat="42.87528" lon="0.97777">
        <ele>748.52368164062</ele>
        <time>2019-05-29T12:12:52Z</time>
      </trkpt>
      <trkpt lat="42.87526" lon="0.97772">
        <ele>748.04321289062</ele>
        <time>2019-05-29T12:12:54Z</time>
      </trkpt>
      <trkpt lat="42.87521" lon="0.97756">
        <ele>748.04321289062</ele>
        <time>2019-05-29T12:13:00Z</time>
      </trkpt>
      <trkpt lat="42.87503" lon="0.97731">
        <ele>746.12036132812</ele>
        <time>2019-05-29T12:13:10Z</time>
      </trkpt>
      <trkpt lat="42.87492" lon="0.97698">
        <ele>748.04321289062</ele>
        <time>2019-05-29T12:13:23Z</time>
      </trkpt>
      <trkpt lat="42.8749" lon="0.9769">
        <ele>747.08154296875</ele>
        <time>2019-05-29T12:13:27Z</time>
      </trkpt>
      <trkpt lat="42.8749" lon="0.97688">
        <ele>747.08154296875</ele>
        <time>2019-05-29T12:13:28Z</time>
      </trkpt>
      <trkpt lat="42.87493" lon="0.97674">
        <ele>744.19775390625</ele>
        <time>2019-05-29T12:13:35Z</time>
      </trkpt>
      <trkpt lat="42.87502" lon="0.97645">
        <ele>741.79443359375</ele>
        <time>2019-05-29T12:13:45Z</time>
      </trkpt>
      <trkpt lat="42.87508" lon="0.97613">
        <ele>738.42993164062</ele>
        <time>2019-05-29T12:13:54Z</time>
      </trkpt>
      <trkpt lat="42.87508" lon="0.97609">
        <ele>738.91064453125</ele>
        <time>2019-05-29T12:13:55Z</time>
      </trkpt>
      <trkpt lat="42.87517" lon="0.97569">
        <ele>737.46850585938</ele>
        <time>2019-05-29T12:14:07Z</time>
      </trkpt>
      <trkpt lat="42.87529" lon="0.97521">
        <ele>736.98779296875</ele>
        <time>2019-05-29T12:14:23Z</time>
      </trkpt>
      <trkpt lat="42.87532" lon="0.97512">
        <ele>736.02661132812</ele>
        <time>2019-05-29T12:14:26Z</time>
      </trkpt>
      <trkpt lat="42.8755" lon="0.97468">
        <ele>737.94921875</ele>
        <time>2019-05-29T12:14:42Z</time>
      </trkpt>
      <trkpt lat="42.87565" lon="0.97441">
        <ele>738.42993164062</ele>
        <time>2019-05-29T12:15:00Z</time>
      </trkpt>
      <trkpt lat="42.87586" lon="0.97414">
        <ele>737.46850585938</ele>
        <time>2019-05-29T12:15:24Z</time>
      </trkpt>
      <trkpt lat="42.87601" lon="0.97382">
        <ele>736.98779296875</ele>
        <time>2019-05-29T12:15:48Z</time>
      </trkpt>
      <trkpt lat="42.87615" lon="0.97349">
        <ele>738.91064453125</ele>
        <time>2019-05-29T12:16:13Z</time>
      </trkpt>
      <trkpt lat="42.87644" lon="0.97355">
        <ele>738.91064453125</ele>
        <time>2019-05-29T12:16:35Z</time>
      </trkpt>
      <trkpt lat="42.87664" lon="0.97365">
        <ele>737.94921875</ele>
        <time>2019-05-29T12:17:00Z</time>
      </trkpt>
      <trkpt lat="42.87673" lon="0.9737">
        <ele>738.91064453125</ele>
        <time>2019-05-29T12:17:12Z</time>
      </trkpt>
      <trkpt lat="42.87688" lon="0.97371">
        <ele>739.39111328125</ele>
        <time>2019-05-29T12:17:32Z</time>
      </trkpt>
      <trkpt lat="42.87688" lon="0.97371">
        <ele>739.39111328125</ele>
        <time>2019-05-29T12:17:33Z</time>
      </trkpt>
      <trkpt lat="42.87694" lon="0.97373">
        <ele>739.87182617188</ele>
        <time>2019-05-29T12:17:39Z</time>
      </trkpt>
      <trkpt lat="42.87702" lon="0.97382">
        <ele>741.31372070312</ele>
        <time>2019-05-29T12:17:48Z</time>
      </trkpt>
      <trkpt lat="42.87706" lon="0.97383">
        <ele>741.79443359375</ele>
        <time>2019-05-29T12:17:58Z</time>
      </trkpt>
    </trkseg>
  </trk>
</gpx>